<?xml version="1.0" encoding="UTF-8" standalone="no" ?>
<gpx xmlns="http://www.topografix.com/GPX/1/1" xmlns:xsi="http://www.w3.org/2001/XMLSchema-instance" xsi:schemaLocation="http://www.topografix.com/GPX/1/1 http://www.topografix.com/GPX/1/1/gpx.xsd" version="1.1" creator="VisuGPX - https://www.visugpx.com">
  <metadata>
    <name>descente toubkal (partielle)</name>
    <desc><![CDATA[File with points/tracks from Locus Map/3.32.2]]></desc>
  </metadata>
  <trk>
    <name><![CDATA[2018-08-20 13:00:41]]></name>
    <trkseg>
      <trkpt lat="31.0609" lon="-7.91625">
        <ele>4179</ele>
        <time>2018-08-20T12:00:41.000Z</time>
      </trkpt>
      <trkpt lat="31.0609" lon="-7.91629">
        <ele>4179.19</ele>
        <time>2018-08-20T12:00:51.000Z</time>
      </trkpt>
      <trkpt lat="31.06093" lon="-7.91635">
        <ele>4176.27</ele>
        <time>2018-08-20T12:01:01.000Z</time>
      </trkpt>
      <trkpt lat="31.06096" lon="-7.91641">
        <ele>4174</ele>
        <time>2018-08-20T12:01:11.000Z</time>
      </trkpt>
      <trkpt lat="31.06097" lon="-7.91646">
        <ele>4173.25</ele>
        <time>2018-08-20T12:01:21.000Z</time>
      </trkpt>
      <trkpt lat="31.06098" lon="-7.91647">
        <ele>4172.25</ele>
        <time>2018-08-20T12:01:31.000Z</time>
      </trkpt>
      <trkpt lat="31.061" lon="-7.9165">
        <ele>4171</ele>
        <time>2018-08-20T12:01:41.000Z</time>
      </trkpt>
      <trkpt lat="31.061" lon="-7.91649">
        <ele>4171</ele>
        <time>2018-08-20T12:02:29.000Z</time>
      </trkpt>
      <trkpt lat="31.06096" lon="-7.91644">
        <ele>4170</ele>
        <time>2018-08-20T12:02:39.000Z</time>
      </trkpt>
      <trkpt lat="31.06097" lon="-7.91637">
        <ele>4172.93</ele>
        <time>2018-08-20T12:02:49.000Z</time>
      </trkpt>
      <trkpt lat="31.06092" lon="-7.91633">
        <ele>4173.98</ele>
        <time>2018-08-20T12:02:59.000Z</time>
      </trkpt>
      <trkpt lat="31.06089" lon="-7.91629">
        <ele>4175.94</ele>
        <time>2018-08-20T12:03:09.000Z</time>
      </trkpt>
      <trkpt lat="31.06085" lon="-7.91627">
        <ele>4178</ele>
        <time>2018-08-20T12:03:19.000Z</time>
      </trkpt>
      <trkpt lat="31.06079" lon="-7.91631">
        <ele>4177</ele>
        <time>2018-08-20T12:03:29.000Z</time>
      </trkpt>
      <trkpt lat="31.06072" lon="-7.91635">
        <ele>4174.37</ele>
        <time>2018-08-20T12:03:39.000Z</time>
      </trkpt>
      <trkpt lat="31.06065" lon="-7.91636">
        <ele>4170.5</ele>
        <time>2018-08-20T12:03:49.000Z</time>
      </trkpt>
      <trkpt lat="31.06057" lon="-7.91631">
        <ele>4168</ele>
        <time>2018-08-20T12:03:59.000Z</time>
      </trkpt>
      <trkpt lat="31.06049" lon="-7.91627">
        <ele>4170.25</ele>
        <time>2018-08-20T12:04:09.000Z</time>
      </trkpt>
      <trkpt lat="31.06045" lon="-7.91636">
        <ele>4168.02</ele>
        <time>2018-08-20T12:04:19.000Z</time>
      </trkpt>
      <trkpt lat="31.06039" lon="-7.91644">
        <ele>4166.58</ele>
        <time>2018-08-20T12:04:29.000Z</time>
      </trkpt>
      <trkpt lat="31.06032" lon="-7.91645">
        <ele>4165.97</ele>
        <time>2018-08-20T12:04:39.000Z</time>
      </trkpt>
      <trkpt lat="31.06022" lon="-7.91648">
        <ele>4166</ele>
        <time>2018-08-20T12:04:49.000Z</time>
      </trkpt>
      <trkpt lat="31.06019" lon="-7.91649">
        <ele>4167.68</ele>
        <time>2018-08-20T12:04:59.000Z</time>
      </trkpt>
      <trkpt lat="31.06018" lon="-7.91651">
        <ele>4166.75</ele>
        <time>2018-08-20T12:05:12.000Z</time>
      </trkpt>
      <trkpt lat="31.06013" lon="-7.91648">
        <ele>4168.67</ele>
        <time>2018-08-20T12:05:22.000Z</time>
      </trkpt>
      <trkpt lat="31.06009" lon="-7.91648">
        <ele>4171</ele>
        <time>2018-08-20T12:05:32.000Z</time>
      </trkpt>
      <trkpt lat="31.06008" lon="-7.9165">
        <ele>4171.01</ele>
        <time>2018-08-20T12:05:42.000Z</time>
      </trkpt>
      <trkpt lat="31.06009" lon="-7.91656">
        <ele>4172.94</ele>
        <time>2018-08-20T12:05:52.000Z</time>
      </trkpt>
      <trkpt lat="31.0601" lon="-7.91657">
        <ele>4174.98</ele>
        <time>2018-08-20T12:06:02.000Z</time>
      </trkpt>
      <trkpt lat="31.06008" lon="-7.91654">
        <ele>4173.24</ele>
        <time>2018-08-20T12:06:12.000Z</time>
      </trkpt>
      <trkpt lat="31.06001" lon="-7.91653">
        <ele>4171.27</ele>
        <time>2018-08-20T12:06:22.000Z</time>
      </trkpt>
      <trkpt lat="31.05993" lon="-7.91658">
        <ele>4161.34</ele>
        <time>2018-08-20T12:06:32.000Z</time>
      </trkpt>
      <trkpt lat="31.05991" lon="-7.91658">
        <ele>4158.26</ele>
        <time>2018-08-20T12:06:42.000Z</time>
      </trkpt>
      <trkpt lat="31.05986" lon="-7.9166">
        <ele>4155.81</ele>
        <time>2018-08-20T12:06:52.000Z</time>
      </trkpt>
      <trkpt lat="31.05978" lon="-7.91662">
        <ele>4155.3</ele>
        <time>2018-08-20T12:07:02.000Z</time>
      </trkpt>
      <trkpt lat="31.05972" lon="-7.91667">
        <ele>4153.06</ele>
        <time>2018-08-20T12:07:12.000Z</time>
      </trkpt>
      <trkpt lat="31.05964" lon="-7.91673">
        <ele>4153.99</ele>
        <time>2018-08-20T12:07:22.000Z</time>
      </trkpt>
      <trkpt lat="31.05955" lon="-7.91678">
        <ele>4152.01</ele>
        <time>2018-08-20T12:07:32.000Z</time>
      </trkpt>
      <trkpt lat="31.05948" lon="-7.9168">
        <ele>4154</ele>
        <time>2018-08-20T12:07:42.000Z</time>
      </trkpt>
      <trkpt lat="31.05943" lon="-7.91686">
        <ele>4148</ele>
        <time>2018-08-20T12:07:52.000Z</time>
      </trkpt>
      <trkpt lat="31.05938" lon="-7.91689">
        <ele>4145.05</ele>
        <time>2018-08-20T12:08:02.000Z</time>
      </trkpt>
      <trkpt lat="31.05932" lon="-7.91693">
        <ele>4145.75</ele>
        <time>2018-08-20T12:08:12.000Z</time>
      </trkpt>
      <trkpt lat="31.05932" lon="-7.91696">
        <ele>4141.39</ele>
        <time>2018-08-20T12:08:22.000Z</time>
      </trkpt>
      <trkpt lat="31.0593" lon="-7.91697">
        <ele>4141</ele>
        <time>2018-08-20T12:08:45.000Z</time>
      </trkpt>
      <trkpt lat="31.05924" lon="-7.91701">
        <ele>4142</ele>
        <time>2018-08-20T12:08:55.000Z</time>
      </trkpt>
      <trkpt lat="31.05923" lon="-7.917">
        <ele>4143</ele>
        <time>2018-08-20T12:09:06.000Z</time>
      </trkpt>
      <trkpt lat="31.05922" lon="-7.91699">
        <ele>4142</ele>
        <time>2018-08-20T12:09:17.000Z</time>
      </trkpt>
      <trkpt lat="31.0592" lon="-7.91701">
        <ele>4143.5</ele>
        <time>2018-08-20T12:09:42.000Z</time>
      </trkpt>
      <trkpt lat="31.05915" lon="-7.91708">
        <ele>4139.92</ele>
        <time>2018-08-20T12:09:52.000Z</time>
      </trkpt>
      <trkpt lat="31.0591" lon="-7.91713">
        <ele>4146.75</ele>
        <time>2018-08-20T12:10:02.000Z</time>
      </trkpt>
      <trkpt lat="31.05902" lon="-7.91716">
        <ele>4143.24</ele>
        <time>2018-08-20T12:10:12.000Z</time>
      </trkpt>
      <trkpt lat="31.05894" lon="-7.91716">
        <ele>4139.06</ele>
        <time>2018-08-20T12:10:22.000Z</time>
      </trkpt>
      <trkpt lat="31.05885" lon="-7.91712">
        <ele>4140</ele>
        <time>2018-08-20T12:10:32.000Z</time>
      </trkpt>
      <trkpt lat="31.05879" lon="-7.91712">
        <ele>4143.22</ele>
        <time>2018-08-20T12:10:42.000Z</time>
      </trkpt>
      <trkpt lat="31.0587" lon="-7.9171">
        <ele>4142.94</ele>
        <time>2018-08-20T12:10:52.000Z</time>
      </trkpt>
      <trkpt lat="31.05864" lon="-7.91713">
        <ele>4143.18</ele>
        <time>2018-08-20T12:11:02.000Z</time>
      </trkpt>
      <trkpt lat="31.05855" lon="-7.91715">
        <ele>4146.07</ele>
        <time>2018-08-20T12:11:12.000Z</time>
      </trkpt>
      <trkpt lat="31.0585" lon="-7.91718">
        <ele>4142.39</ele>
        <time>2018-08-20T12:11:22.000Z</time>
      </trkpt>
      <trkpt lat="31.05846" lon="-7.91721">
        <ele>4138.25</ele>
        <time>2018-08-20T12:11:32.000Z</time>
      </trkpt>
      <trkpt lat="31.05851" lon="-7.9173">
        <ele>4129.97</ele>
        <time>2018-08-20T12:11:42.000Z</time>
      </trkpt>
      <trkpt lat="31.05844" lon="-7.91736">
        <ele>4133.12</ele>
        <time>2018-08-20T12:11:52.000Z</time>
      </trkpt>
      <trkpt lat="31.05836" lon="-7.91733">
        <ele>4132.33</ele>
        <time>2018-08-20T12:12:02.000Z</time>
      </trkpt>
      <trkpt lat="31.05833" lon="-7.91735">
        <ele>4126.08</ele>
        <time>2018-08-20T12:12:12.000Z</time>
      </trkpt>
      <trkpt lat="31.0583" lon="-7.91738">
        <ele>4122.03</ele>
        <time>2018-08-20T12:12:22.000Z</time>
      </trkpt>
      <trkpt lat="31.05826" lon="-7.9174">
        <ele>4120.05</ele>
        <time>2018-08-20T12:12:32.000Z</time>
      </trkpt>
      <trkpt lat="31.05819" lon="-7.91739">
        <ele>4120.05</ele>
        <time>2018-08-20T12:12:42.000Z</time>
      </trkpt>
      <trkpt lat="31.05815" lon="-7.9174">
        <ele>4118</ele>
        <time>2018-08-20T12:12:52.000Z</time>
      </trkpt>
      <trkpt lat="31.05812" lon="-7.91744">
        <ele>4115.25</ele>
        <time>2018-08-20T12:13:02.000Z</time>
      </trkpt>
      <trkpt lat="31.05812" lon="-7.91747">
        <ele>4114</ele>
        <time>2018-08-20T12:13:12.000Z</time>
      </trkpt>
      <trkpt lat="31.05812" lon="-7.91749">
        <ele>4113</ele>
        <time>2018-08-20T12:13:22.000Z</time>
      </trkpt>
      <trkpt lat="31.0581" lon="-7.91755">
        <ele>4111.06</ele>
        <time>2018-08-20T12:13:32.000Z</time>
      </trkpt>
      <trkpt lat="31.05803" lon="-7.9176">
        <ele>4106.02</ele>
        <time>2018-08-20T12:13:42.000Z</time>
      </trkpt>
      <trkpt lat="31.05796" lon="-7.91762">
        <ele>4106.5</ele>
        <time>2018-08-20T12:13:52.000Z</time>
      </trkpt>
      <trkpt lat="31.05789" lon="-7.91767">
        <ele>4100.08</ele>
        <time>2018-08-20T12:14:02.000Z</time>
      </trkpt>
      <trkpt lat="31.05782" lon="-7.91769">
        <ele>4100.19</ele>
        <time>2018-08-20T12:14:12.000Z</time>
      </trkpt>
      <trkpt lat="31.05777" lon="-7.91771">
        <ele>4099</ele>
        <time>2018-08-20T12:14:22.000Z</time>
      </trkpt>
      <trkpt lat="31.0577" lon="-7.91773">
        <ele>4097.06</ele>
        <time>2018-08-20T12:14:32.000Z</time>
      </trkpt>
      <trkpt lat="31.05763" lon="-7.91773">
        <ele>4094.2</ele>
        <time>2018-08-20T12:14:42.000Z</time>
      </trkpt>
      <trkpt lat="31.05757" lon="-7.91778">
        <ele>4089</ele>
        <time>2018-08-20T12:14:52.000Z</time>
      </trkpt>
      <trkpt lat="31.05752" lon="-7.91785">
        <ele>4085.02</ele>
        <time>2018-08-20T12:15:02.000Z</time>
      </trkpt>
      <trkpt lat="31.05743" lon="-7.91788">
        <ele>4082</ele>
        <time>2018-08-20T12:15:12.000Z</time>
      </trkpt>
      <trkpt lat="31.05737" lon="-7.91792">
        <ele>4080.2</ele>
        <time>2018-08-20T12:15:22.000Z</time>
      </trkpt>
      <trkpt lat="31.05729" lon="-7.91795">
        <ele>4078.05</ele>
        <time>2018-08-20T12:15:32.000Z</time>
      </trkpt>
      <trkpt lat="31.05722" lon="-7.918">
        <ele>4076.01</ele>
        <time>2018-08-20T12:15:42.000Z</time>
      </trkpt>
      <trkpt lat="31.05718" lon="-7.91801">
        <ele>4072</ele>
        <time>2018-08-20T12:15:52.000Z</time>
      </trkpt>
      <trkpt lat="31.05711" lon="-7.91805">
        <ele>4070.02</ele>
        <time>2018-08-20T12:16:02.000Z</time>
      </trkpt>
      <trkpt lat="31.05707" lon="-7.91806">
        <ele>4070.25</ele>
        <time>2018-08-20T12:16:12.000Z</time>
      </trkpt>
      <trkpt lat="31.05702" lon="-7.91809">
        <ele>4069.02</ele>
        <time>2018-08-20T12:16:22.000Z</time>
      </trkpt>
      <trkpt lat="31.05697" lon="-7.91814">
        <ele>4065.96</ele>
        <time>2018-08-20T12:16:32.000Z</time>
      </trkpt>
      <trkpt lat="31.05696" lon="-7.91814">
        <ele>4065.01</ele>
        <time>2018-08-20T12:16:43.000Z</time>
      </trkpt>
      <trkpt lat="31.05694" lon="-7.91818">
        <ele>4061.5</ele>
        <time>2018-08-20T12:16:53.000Z</time>
      </trkpt>
      <trkpt lat="31.05691" lon="-7.91821">
        <ele>4059.25</ele>
        <time>2018-08-20T12:17:03.000Z</time>
      </trkpt>
      <trkpt lat="31.05691" lon="-7.91823">
        <ele>4056.02</ele>
        <time>2018-08-20T12:17:13.000Z</time>
      </trkpt>
      <trkpt lat="31.05687" lon="-7.91827">
        <ele>4060</ele>
        <time>2018-08-20T12:17:23.000Z</time>
      </trkpt>
      <trkpt lat="31.05683" lon="-7.91831">
        <ele>4057</ele>
        <time>2018-08-20T12:17:33.000Z</time>
      </trkpt>
      <trkpt lat="31.05675" lon="-7.9183">
        <ele>4054.56</ele>
        <time>2018-08-20T12:17:43.000Z</time>
      </trkpt>
      <trkpt lat="31.05667" lon="-7.91831">
        <ele>4053.31</ele>
        <time>2018-08-20T12:17:53.000Z</time>
      </trkpt>
      <trkpt lat="31.0566" lon="-7.91834">
        <ele>4049.25</ele>
        <time>2018-08-20T12:18:03.000Z</time>
      </trkpt>
      <trkpt lat="31.05656" lon="-7.91834">
        <ele>4047.26</ele>
        <time>2018-08-20T12:18:13.000Z</time>
      </trkpt>
      <trkpt lat="31.0565" lon="-7.91837">
        <ele>4044.02</ele>
        <time>2018-08-20T12:18:23.000Z</time>
      </trkpt>
      <trkpt lat="31.05645" lon="-7.9184">
        <ele>4040.01</ele>
        <time>2018-08-20T12:18:33.000Z</time>
      </trkpt>
      <trkpt lat="31.05639" lon="-7.91843">
        <ele>4039.98</ele>
        <time>2018-08-20T12:18:43.000Z</time>
      </trkpt>
      <trkpt lat="31.05632" lon="-7.91849">
        <ele>4038.02</ele>
        <time>2018-08-20T12:18:53.000Z</time>
      </trkpt>
      <trkpt lat="31.05622" lon="-7.91852">
        <ele>4037.25</ele>
        <time>2018-08-20T12:19:03.000Z</time>
      </trkpt>
      <trkpt lat="31.05615" lon="-7.91855">
        <ele>4036.02</ele>
        <time>2018-08-20T12:19:13.000Z</time>
      </trkpt>
      <trkpt lat="31.05608" lon="-7.91859">
        <ele>4035.94</ele>
        <time>2018-08-20T12:19:23.000Z</time>
      </trkpt>
      <trkpt lat="31.05604" lon="-7.91865">
        <ele>4031.02</ele>
        <time>2018-08-20T12:19:33.000Z</time>
      </trkpt>
      <trkpt lat="31.05601" lon="-7.9187">
        <ele>4030.05</ele>
        <time>2018-08-20T12:19:43.000Z</time>
      </trkpt>
      <trkpt lat="31.05605" lon="-7.91875">
        <ele>4026.33</ele>
        <time>2018-08-20T12:19:53.000Z</time>
      </trkpt>
      <trkpt lat="31.05605" lon="-7.91879">
        <ele>4021.27</ele>
        <time>2018-08-20T12:20:03.000Z</time>
      </trkpt>
      <trkpt lat="31.05607" lon="-7.91884">
        <ele>4019</ele>
        <time>2018-08-20T12:20:13.000Z</time>
      </trkpt>
      <trkpt lat="31.05611" lon="-7.91888">
        <ele>4016.25</ele>
        <time>2018-08-20T12:20:23.000Z</time>
      </trkpt>
      <trkpt lat="31.05614" lon="-7.91895">
        <ele>4013.02</ele>
        <time>2018-08-20T12:20:33.000Z</time>
      </trkpt>
      <trkpt lat="31.05614" lon="-7.91897">
        <ele>4012</ele>
        <time>2018-08-20T12:20:43.000Z</time>
      </trkpt>
      <trkpt lat="31.05619" lon="-7.91899">
        <ele>4010.28</ele>
        <time>2018-08-20T12:20:53.000Z</time>
      </trkpt>
      <trkpt lat="31.05625" lon="-7.91899">
        <ele>4004.26</ele>
        <time>2018-08-20T12:21:03.000Z</time>
      </trkpt>
      <trkpt lat="31.05628" lon="-7.91902">
        <ele>4003.25</ele>
        <time>2018-08-20T12:21:13.000Z</time>
      </trkpt>
      <trkpt lat="31.05627" lon="-7.91914">
        <ele>4000.83</ele>
        <time>2018-08-20T12:21:23.000Z</time>
      </trkpt>
      <trkpt lat="31.05624" lon="-7.91924">
        <ele>4006.61</ele>
        <time>2018-08-20T12:21:33.000Z</time>
      </trkpt>
      <trkpt lat="31.05622" lon="-7.91935">
        <ele>4005.25</ele>
        <time>2018-08-20T12:21:43.000Z</time>
      </trkpt>
      <trkpt lat="31.05619" lon="-7.91945">
        <ele>4008.02</ele>
        <time>2018-08-20T12:21:53.000Z</time>
      </trkpt>
      <trkpt lat="31.05623" lon="-7.9195">
        <ele>4001.02</ele>
        <time>2018-08-20T12:22:03.000Z</time>
      </trkpt>
      <trkpt lat="31.05628" lon="-7.91956">
        <ele>3997.08</ele>
        <time>2018-08-20T12:22:13.000Z</time>
      </trkpt>
      <trkpt lat="31.05636" lon="-7.91962">
        <ele>3993.06</ele>
        <time>2018-08-20T12:22:23.000Z</time>
      </trkpt>
      <trkpt lat="31.05641" lon="-7.91964">
        <ele>3991.06</ele>
        <time>2018-08-20T12:22:33.000Z</time>
      </trkpt>
      <trkpt lat="31.05643" lon="-7.91967">
        <ele>3989.25</ele>
        <time>2018-08-20T12:22:43.000Z</time>
      </trkpt>
      <trkpt lat="31.05651" lon="-7.91975">
        <ele>3985.08</ele>
        <time>2018-08-20T12:22:53.000Z</time>
      </trkpt>
      <trkpt lat="31.0566" lon="-7.9198">
        <ele>3983.2</ele>
        <time>2018-08-20T12:23:03.000Z</time>
      </trkpt>
      <trkpt lat="31.05668" lon="-7.91985">
        <ele>3979.83</ele>
        <time>2018-08-20T12:23:13.000Z</time>
      </trkpt>
      <trkpt lat="31.0568" lon="-7.91992">
        <ele>3975.31</ele>
        <time>2018-08-20T12:23:23.000Z</time>
      </trkpt>
      <trkpt lat="31.05682" lon="-7.92006">
        <ele>3972.95</ele>
        <time>2018-08-20T12:23:33.000Z</time>
      </trkpt>
      <trkpt lat="31.05682" lon="-7.92014">
        <ele>3967.09</ele>
        <time>2018-08-20T12:23:43.000Z</time>
      </trkpt>
      <trkpt lat="31.05684" lon="-7.92018">
        <ele>3968.94</ele>
        <time>2018-08-20T12:23:53.000Z</time>
      </trkpt>
      <trkpt lat="31.05687" lon="-7.92023">
        <ele>3966.24</ele>
        <time>2018-08-20T12:24:03.000Z</time>
      </trkpt>
      <trkpt lat="31.05693" lon="-7.92028">
        <ele>3949.94</ele>
        <time>2018-08-20T12:24:13.000Z</time>
      </trkpt>
      <trkpt lat="31.05696" lon="-7.92035">
        <ele>3955.05</ele>
        <time>2018-08-20T12:24:23.000Z</time>
      </trkpt>
      <trkpt lat="31.05701" lon="-7.92046">
        <ele>3957.25</ele>
        <time>2018-08-20T12:24:33.000Z</time>
      </trkpt>
      <trkpt lat="31.05708" lon="-7.92051">
        <ele>3951.08</ele>
        <time>2018-08-20T12:24:43.000Z</time>
      </trkpt>
      <trkpt lat="31.0571" lon="-7.92062">
        <ele>3916.14</ele>
        <time>2018-08-20T12:24:53.000Z</time>
      </trkpt>
      <trkpt lat="31.05714" lon="-7.92066">
        <ele>3938.97</ele>
        <time>2018-08-20T12:25:03.000Z</time>
      </trkpt>
      <trkpt lat="31.0572" lon="-7.9207">
        <ele>3942.93</ele>
        <time>2018-08-20T12:25:13.000Z</time>
      </trkpt>
      <trkpt lat="31.05726" lon="-7.92076">
        <ele>3941.18</ele>
        <time>2018-08-20T12:25:23.000Z</time>
      </trkpt>
      <trkpt lat="31.05732" lon="-7.92084">
        <ele>3935.28</ele>
        <time>2018-08-20T12:25:33.000Z</time>
      </trkpt>
      <trkpt lat="31.05737" lon="-7.92085">
        <ele>3934.06</ele>
        <time>2018-08-20T12:25:43.000Z</time>
      </trkpt>
      <trkpt lat="31.05735" lon="-7.92086">
        <ele>3931.07</ele>
        <time>2018-08-20T12:25:53.000Z</time>
      </trkpt>
      <trkpt lat="31.05735" lon="-7.92084">
        <ele>3881.6</ele>
        <time>2018-08-20T12:26:03.000Z</time>
      </trkpt>
      <trkpt lat="31.05738" lon="-7.9209">
        <ele>3916.9</ele>
        <time>2018-08-20T12:26:13.000Z</time>
      </trkpt>
      <trkpt lat="31.05741" lon="-7.92091">
        <ele>3926.12</ele>
        <time>2018-08-20T12:26:27.000Z</time>
      </trkpt>
      <trkpt lat="31.05743" lon="-7.92094">
        <ele>3922.33</ele>
        <time>2018-08-20T12:26:37.000Z</time>
      </trkpt>
      <trkpt lat="31.05745" lon="-7.92099">
        <ele>3922.23</ele>
        <time>2018-08-20T12:26:47.000Z</time>
      </trkpt>
      <trkpt lat="31.05749" lon="-7.921">
        <ele>3922</ele>
        <time>2018-08-20T12:26:57.000Z</time>
      </trkpt>
      <trkpt lat="31.0575" lon="-7.92105">
        <ele>3922.06</ele>
        <time>2018-08-20T12:27:07.000Z</time>
      </trkpt>
      <trkpt lat="31.05754" lon="-7.92109">
        <ele>3920.06</ele>
        <time>2018-08-20T12:27:17.000Z</time>
      </trkpt>
      <trkpt lat="31.05754" lon="-7.9211">
        <ele>3921.94</ele>
        <time>2018-08-20T12:27:28.000Z</time>
      </trkpt>
      <trkpt lat="31.05758" lon="-7.92114">
        <ele>3923.95</ele>
        <time>2018-08-20T12:27:38.000Z</time>
      </trkpt>
      <trkpt lat="31.05758" lon="-7.92115">
        <ele>3924.98</ele>
        <time>2018-08-20T12:27:49.000Z</time>
      </trkpt>
      <trkpt lat="31.05757" lon="-7.92121">
        <ele>3924.41</ele>
        <time>2018-08-20T12:27:59.000Z</time>
      </trkpt>
      <trkpt lat="31.05762" lon="-7.92118">
        <ele>3922.28</ele>
        <time>2018-08-20T12:28:09.000Z</time>
      </trkpt>
      <trkpt lat="31.05764" lon="-7.92122">
        <ele>3919.13</ele>
        <time>2018-08-20T12:28:19.000Z</time>
      </trkpt>
      <trkpt lat="31.05765" lon="-7.92129">
        <ele>3918.31</ele>
        <time>2018-08-20T12:28:29.000Z</time>
      </trkpt>
      <trkpt lat="31.05764" lon="-7.92132">
        <ele>3917.02</ele>
        <time>2018-08-20T12:28:39.000Z</time>
      </trkpt>
      <trkpt lat="31.05766" lon="-7.92134">
        <ele>3909.01</ele>
        <time>2018-08-20T12:28:49.000Z</time>
      </trkpt>
      <trkpt lat="31.0577" lon="-7.92136">
        <ele>3908.94</ele>
        <time>2018-08-20T12:28:59.000Z</time>
      </trkpt>
      <trkpt lat="31.05771" lon="-7.92138">
        <ele>3908.98</ele>
        <time>2018-08-20T12:29:09.000Z</time>
      </trkpt>
      <trkpt lat="31.05772" lon="-7.92143">
        <ele>3906.69</ele>
        <time>2018-08-20T12:29:19.000Z</time>
      </trkpt>
      <trkpt lat="31.05775" lon="-7.92141">
        <ele>3907.25</ele>
        <time>2018-08-20T12:29:32.000Z</time>
      </trkpt>
      <trkpt lat="31.05781" lon="-7.92138">
        <ele>3903.27</ele>
        <time>2018-08-20T12:29:42.000Z</time>
      </trkpt>
      <trkpt lat="31.05788" lon="-7.92138">
        <ele>3901.25</ele>
        <time>2018-08-20T12:29:52.000Z</time>
      </trkpt>
      <trkpt lat="31.05789" lon="-7.92137">
        <ele>3899</ele>
        <time>2018-08-20T12:30:02.000Z</time>
      </trkpt>
      <trkpt lat="31.05787" lon="-7.92136">
        <ele>3893.32</ele>
        <time>2018-08-20T12:30:12.000Z</time>
      </trkpt>
      <trkpt lat="31.05784" lon="-7.92145">
        <ele>3889</ele>
        <time>2018-08-20T12:30:22.000Z</time>
      </trkpt>
      <trkpt lat="31.05784" lon="-7.92152">
        <ele>3887.27</ele>
        <time>2018-08-20T12:30:32.000Z</time>
      </trkpt>
      <trkpt lat="31.05788" lon="-7.92148">
        <ele>3886.06</ele>
        <time>2018-08-20T12:30:42.000Z</time>
      </trkpt>
      <trkpt lat="31.05794" lon="-7.92149">
        <ele>3883.24</ele>
        <time>2018-08-20T12:30:52.000Z</time>
      </trkpt>
      <trkpt lat="31.05791" lon="-7.92157">
        <ele>3881.18</ele>
        <time>2018-08-20T12:31:02.000Z</time>
      </trkpt>
      <trkpt lat="31.0579" lon="-7.92162">
        <ele>3878.08</ele>
        <time>2018-08-20T12:31:12.000Z</time>
      </trkpt>
      <trkpt lat="31.05788" lon="-7.92165">
        <ele>3877.95</ele>
        <time>2018-08-20T12:31:22.000Z</time>
      </trkpt>
      <trkpt lat="31.0579" lon="-7.92173">
        <ele>3875.07</ele>
        <time>2018-08-20T12:31:32.000Z</time>
      </trkpt>
      <trkpt lat="31.05792" lon="-7.92181">
        <ele>3871.06</ele>
        <time>2018-08-20T12:31:42.000Z</time>
      </trkpt>
      <trkpt lat="31.05795" lon="-7.92185">
        <ele>3874</ele>
        <time>2018-08-20T12:31:52.000Z</time>
      </trkpt>
      <trkpt lat="31.05797" lon="-7.92191">
        <ele>3869.99</ele>
        <time>2018-08-20T12:32:02.000Z</time>
      </trkpt>
      <trkpt lat="31.05796" lon="-7.92196">
        <ele>3866.26</ele>
        <time>2018-08-20T12:32:12.000Z</time>
      </trkpt>
      <trkpt lat="31.05798" lon="-7.92202">
        <ele>3864.02</ele>
        <time>2018-08-20T12:32:22.000Z</time>
      </trkpt>
      <trkpt lat="31.05793" lon="-7.92207">
        <ele>3862.96</ele>
        <time>2018-08-20T12:32:32.000Z</time>
      </trkpt>
      <trkpt lat="31.05794" lon="-7.92217">
        <ele>3854.55</ele>
        <time>2018-08-20T12:32:42.000Z</time>
      </trkpt>
      <trkpt lat="31.05793" lon="-7.92223">
        <ele>3851.93</ele>
        <time>2018-08-20T12:32:52.000Z</time>
      </trkpt>
      <trkpt lat="31.05794" lon="-7.92233">
        <ele>3850.94</ele>
        <time>2018-08-20T12:33:02.000Z</time>
      </trkpt>
      <trkpt lat="31.05795" lon="-7.92238">
        <ele>3850.77</ele>
        <time>2018-08-20T12:33:12.000Z</time>
      </trkpt>
      <trkpt lat="31.05797" lon="-7.92243">
        <ele>3864.05</ele>
        <time>2018-08-20T12:33:22.000Z</time>
      </trkpt>
      <trkpt lat="31.058" lon="-7.92249">
        <ele>3856.02</ele>
        <time>2018-08-20T12:33:32.000Z</time>
      </trkpt>
      <trkpt lat="31.05803" lon="-7.92252">
        <ele>3855</ele>
        <time>2018-08-20T12:33:42.000Z</time>
      </trkpt>
      <trkpt lat="31.05806" lon="-7.9226">
        <ele>3853.96</ele>
        <time>2018-08-20T12:33:52.000Z</time>
      </trkpt>
      <trkpt lat="31.05813" lon="-7.9226">
        <ele>3844.03</ele>
        <time>2018-08-20T12:34:02.000Z</time>
      </trkpt>
      <trkpt lat="31.05821" lon="-7.92268">
        <ele>3841.02</ele>
        <time>2018-08-20T12:34:12.000Z</time>
      </trkpt>
      <trkpt lat="31.05821" lon="-7.92269">
        <ele>3841.3</ele>
        <time>2018-08-20T12:34:22.000Z</time>
      </trkpt>
      <trkpt lat="31.05825" lon="-7.92269">
        <ele>3842.99</ele>
        <time>2018-08-20T12:34:32.000Z</time>
      </trkpt>
      <trkpt lat="31.0583" lon="-7.92275">
        <ele>3837.08</ele>
        <time>2018-08-20T12:34:42.000Z</time>
      </trkpt>
      <trkpt lat="31.05834" lon="-7.92277">
        <ele>3838.03</ele>
        <time>2018-08-20T12:34:52.000Z</time>
      </trkpt>
      <trkpt lat="31.05838" lon="-7.92275">
        <ele>3836.69</ele>
        <time>2018-08-20T12:35:02.000Z</time>
      </trkpt>
      <trkpt lat="31.05842" lon="-7.92282">
        <ele>3835.25</ele>
        <time>2018-08-20T12:35:12.000Z</time>
      </trkpt>
      <trkpt lat="31.05845" lon="-7.92279">
        <ele>3834</ele>
        <time>2018-08-20T12:35:22.000Z</time>
      </trkpt>
      <trkpt lat="31.05845" lon="-7.92323">
        <ele>3807.69</ele>
        <time>2018-08-20T12:37:01.000Z</time>
      </trkpt>
      <trkpt lat="31.05851" lon="-7.92328">
        <ele>3801.37</ele>
        <time>2018-08-20T12:37:11.000Z</time>
      </trkpt>
      <trkpt lat="31.05851" lon="-7.92337">
        <ele>3795.28</ele>
        <time>2018-08-20T12:37:21.000Z</time>
      </trkpt>
      <trkpt lat="31.05854" lon="-7.92351">
        <ele>3785.82</ele>
        <time>2018-08-20T12:37:31.000Z</time>
      </trkpt>
      <trkpt lat="31.05859" lon="-7.92362">
        <ele>3782.06</ele>
        <time>2018-08-20T12:37:41.000Z</time>
      </trkpt>
      <trkpt lat="31.05863" lon="-7.92373">
        <ele>3779.01</ele>
        <time>2018-08-20T12:37:51.000Z</time>
      </trkpt>
      <trkpt lat="31.05866" lon="-7.92384">
        <ele>3773.08</ele>
        <time>2018-08-20T12:38:01.000Z</time>
      </trkpt>
      <trkpt lat="31.05865" lon="-7.92394">
        <ele>3771.25</ele>
        <time>2018-08-20T12:38:11.000Z</time>
      </trkpt>
      <trkpt lat="31.05871" lon="-7.92402">
        <ele>3768.81</ele>
        <time>2018-08-20T12:38:21.000Z</time>
      </trkpt>
      <trkpt lat="31.05873" lon="-7.92407">
        <ele>3767.7</ele>
        <time>2018-08-20T12:38:31.000Z</time>
      </trkpt>
      <trkpt lat="31.05875" lon="-7.92413">
        <ele>3760.31</ele>
        <time>2018-08-20T12:38:41.000Z</time>
      </trkpt>
      <trkpt lat="31.05879" lon="-7.9242">
        <ele>3757.13</ele>
        <time>2018-08-20T12:38:51.000Z</time>
      </trkpt>
      <trkpt lat="31.05882" lon="-7.92424">
        <ele>3762</ele>
        <time>2018-08-20T12:39:01.000Z</time>
      </trkpt>
      <trkpt lat="31.0589" lon="-7.92425">
        <ele>3762.75</ele>
        <time>2018-08-20T12:39:47.000Z</time>
      </trkpt>
      <trkpt lat="31.05896" lon="-7.92433">
        <ele>3773.67</ele>
        <time>2018-08-20T12:39:57.000Z</time>
      </trkpt>
      <trkpt lat="31.05896" lon="-7.9244">
        <ele>3781.21</ele>
        <time>2018-08-20T12:40:07.000Z</time>
      </trkpt>
      <trkpt lat="31.05897" lon="-7.92447">
        <ele>3778.25</ele>
        <time>2018-08-20T12:40:17.000Z</time>
      </trkpt>
      <trkpt lat="31.059" lon="-7.92449">
        <ele>3776.25</ele>
        <time>2018-08-20T12:40:27.000Z</time>
      </trkpt>
      <trkpt lat="31.05903" lon="-7.9245">
        <ele>3774.77</ele>
        <time>2018-08-20T12:40:37.000Z</time>
      </trkpt>
      <trkpt lat="31.05907" lon="-7.92448">
        <ele>3767.3</ele>
        <time>2018-08-20T12:40:47.000Z</time>
      </trkpt>
      <trkpt lat="31.05909" lon="-7.9245">
        <ele>3770.73</ele>
        <time>2018-08-20T12:40:57.000Z</time>
      </trkpt>
      <trkpt lat="31.05915" lon="-7.92457">
        <ele>3771</ele>
        <time>2018-08-20T12:41:07.000Z</time>
      </trkpt>
      <trkpt lat="31.05918" lon="-7.9246">
        <ele>3764.06</ele>
        <time>2018-08-20T12:41:17.000Z</time>
      </trkpt>
      <trkpt lat="31.05921" lon="-7.92458">
        <ele>3763.25</ele>
        <time>2018-08-20T12:41:27.000Z</time>
      </trkpt>
      <trkpt lat="31.05927" lon="-7.92462">
        <ele>3761.23</ele>
        <time>2018-08-20T12:41:37.000Z</time>
      </trkpt>
      <trkpt lat="31.0593" lon="-7.92465">
        <ele>3757.23</ele>
        <time>2018-08-20T12:41:47.000Z</time>
      </trkpt>
      <trkpt lat="31.05935" lon="-7.9247">
        <ele>3755.19</ele>
        <time>2018-08-20T12:41:57.000Z</time>
      </trkpt>
      <trkpt lat="31.05939" lon="-7.92472">
        <ele>3754.99</ele>
        <time>2018-08-20T12:42:07.000Z</time>
      </trkpt>
      <trkpt lat="31.05943" lon="-7.92472">
        <ele>3749.82</ele>
        <time>2018-08-20T12:42:17.000Z</time>
      </trkpt>
      <trkpt lat="31.05945" lon="-7.92475">
        <ele>3750.69</ele>
        <time>2018-08-20T12:42:27.000Z</time>
      </trkpt>
      <trkpt lat="31.05949" lon="-7.92478">
        <ele>3750.05</ele>
        <time>2018-08-20T12:42:37.000Z</time>
      </trkpt>
      <trkpt lat="31.05953" lon="-7.92484">
        <ele>3748.08</ele>
        <time>2018-08-20T12:42:47.000Z</time>
      </trkpt>
      <trkpt lat="31.05955" lon="-7.92484">
        <ele>3746.88</ele>
        <time>2018-08-20T12:42:57.000Z</time>
      </trkpt>
      <trkpt lat="31.05958" lon="-7.92489">
        <ele>3744.82</ele>
        <time>2018-08-20T12:43:07.000Z</time>
      </trkpt>
      <trkpt lat="31.05962" lon="-7.9249">
        <ele>3740.38</ele>
        <time>2018-08-20T12:43:17.000Z</time>
      </trkpt>
      <trkpt lat="31.05962" lon="-7.92499">
        <ele>3741.93</ele>
        <time>2018-08-20T12:43:27.000Z</time>
      </trkpt>
      <trkpt lat="31.05961" lon="-7.92504">
        <ele>3742.19</ele>
        <time>2018-08-20T12:43:37.000Z</time>
      </trkpt>
      <trkpt lat="31.05963" lon="-7.92498">
        <ele>3736.02</ele>
        <time>2018-08-20T12:43:47.000Z</time>
      </trkpt>
      <trkpt lat="31.05964" lon="-7.92494">
        <ele>3735</ele>
        <time>2018-08-20T12:43:57.000Z</time>
      </trkpt>
      <trkpt lat="31.05962" lon="-7.92495">
        <ele>3734.06</ele>
        <time>2018-08-20T12:44:40.000Z</time>
      </trkpt>
      <trkpt lat="31.05961" lon="-7.92494">
        <ele>3734.46</ele>
        <time>2018-08-20T12:44:50.000Z</time>
      </trkpt>
      <trkpt lat="31.05961" lon="-7.92495">
        <ele>3734.69</ele>
        <time>2018-08-20T12:45:18.000Z</time>
      </trkpt>
      <trkpt lat="31.05961" lon="-7.92502">
        <ele>3730.26</ele>
        <time>2018-08-20T12:45:28.000Z</time>
      </trkpt>
      <trkpt lat="31.05959" lon="-7.92508">
        <ele>3733</ele>
        <time>2018-08-20T12:45:38.000Z</time>
      </trkpt>
      <trkpt lat="31.05958" lon="-7.92512">
        <ele>3732.03</ele>
        <time>2018-08-20T12:45:48.000Z</time>
      </trkpt>
      <trkpt lat="31.05956" lon="-7.92518">
        <ele>3727.34</ele>
        <time>2018-08-20T12:45:58.000Z</time>
      </trkpt>
      <trkpt lat="31.05957" lon="-7.92522">
        <ele>3725.77</ele>
        <time>2018-08-20T12:46:08.000Z</time>
      </trkpt>
      <trkpt lat="31.05962" lon="-7.92528">
        <ele>3723.25</ele>
        <time>2018-08-20T12:46:18.000Z</time>
      </trkpt>
      <trkpt lat="31.05966" lon="-7.92532">
        <ele>3718.43</ele>
        <time>2018-08-20T12:46:28.000Z</time>
      </trkpt>
      <trkpt lat="31.05968" lon="-7.92538">
        <ele>3715.27</ele>
        <time>2018-08-20T12:46:38.000Z</time>
      </trkpt>
      <trkpt lat="31.05965" lon="-7.92543">
        <ele>3713.08</ele>
        <time>2018-08-20T12:46:48.000Z</time>
      </trkpt>
      <trkpt lat="31.05967" lon="-7.92549">
        <ele>3711.76</ele>
        <time>2018-08-20T12:46:58.000Z</time>
      </trkpt>
      <trkpt lat="31.05971" lon="-7.92556">
        <ele>3707.82</ele>
        <time>2018-08-20T12:47:08.000Z</time>
      </trkpt>
      <trkpt lat="31.05969" lon="-7.92565">
        <ele>3705.86</ele>
        <time>2018-08-20T12:47:18.000Z</time>
      </trkpt>
      <trkpt lat="31.05971" lon="-7.92569">
        <ele>3703.26</ele>
        <time>2018-08-20T12:47:28.000Z</time>
      </trkpt>
      <trkpt lat="31.05975" lon="-7.92563">
        <ele>3697.3</ele>
        <time>2018-08-20T12:47:38.000Z</time>
      </trkpt>
      <trkpt lat="31.05979" lon="-7.92559">
        <ele>3695.86</ele>
        <time>2018-08-20T12:47:48.000Z</time>
      </trkpt>
      <trkpt lat="31.0598" lon="-7.92567">
        <ele>3697</ele>
        <time>2018-08-20T12:47:58.000Z</time>
      </trkpt>
      <trkpt lat="31.05982" lon="-7.92573">
        <ele>3691.25</ele>
        <time>2018-08-20T12:48:08.000Z</time>
      </trkpt>
      <trkpt lat="31.05985" lon="-7.92574">
        <ele>3688.99</ele>
        <time>2018-08-20T12:48:18.000Z</time>
      </trkpt>
      <trkpt lat="31.05988" lon="-7.92579">
        <ele>3688.75</ele>
        <time>2018-08-20T12:48:28.000Z</time>
      </trkpt>
      <trkpt lat="31.05991" lon="-7.9258">
        <ele>3688.2</ele>
        <time>2018-08-20T12:48:38.000Z</time>
      </trkpt>
      <trkpt lat="31.05992" lon="-7.92583">
        <ele>3685.25</ele>
        <time>2018-08-20T12:48:48.000Z</time>
      </trkpt>
      <trkpt lat="31.05992" lon="-7.9259">
        <ele>3682.94</ele>
        <time>2018-08-20T12:48:58.000Z</time>
      </trkpt>
      <trkpt lat="31.05997" lon="-7.92595">
        <ele>3682.81</ele>
        <time>2018-08-20T12:49:08.000Z</time>
      </trkpt>
      <trkpt lat="31.05996" lon="-7.92599">
        <ele>3683.75</ele>
        <time>2018-08-20T12:49:18.000Z</time>
      </trkpt>
      <trkpt lat="31.05998" lon="-7.92604">
        <ele>3682.01</ele>
        <time>2018-08-20T12:49:28.000Z</time>
      </trkpt>
      <trkpt lat="31.06002" lon="-7.9261">
        <ele>3681.02</ele>
        <time>2018-08-20T12:49:38.000Z</time>
      </trkpt>
      <trkpt lat="31.06001" lon="-7.92615">
        <ele>3677.32</ele>
        <time>2018-08-20T12:49:48.000Z</time>
      </trkpt>
      <trkpt lat="31.06002" lon="-7.92618">
        <ele>3674.26</ele>
        <time>2018-08-20T12:49:58.000Z</time>
      </trkpt>
      <trkpt lat="31.06002" lon="-7.92623">
        <ele>3673.69</ele>
        <time>2018-08-20T12:50:08.000Z</time>
      </trkpt>
      <trkpt lat="31.06004" lon="-7.92626">
        <ele>3672.21</ele>
        <time>2018-08-20T12:50:18.000Z</time>
      </trkpt>
      <trkpt lat="31.06003" lon="-7.92631">
        <ele>3667.58</ele>
        <time>2018-08-20T12:50:28.000Z</time>
      </trkpt>
      <trkpt lat="31.06002" lon="-7.92637">
        <ele>3662.82</ele>
        <time>2018-08-20T12:50:38.000Z</time>
      </trkpt>
      <trkpt lat="31.06001" lon="-7.92645">
        <ele>3663.24</ele>
        <time>2018-08-20T12:50:48.000Z</time>
      </trkpt>
      <trkpt lat="31.06001" lon="-7.92652">
        <ele>3654.26</ele>
        <time>2018-08-20T12:50:58.000Z</time>
      </trkpt>
      <trkpt lat="31.06002" lon="-7.9266">
        <ele>3652.25</ele>
        <time>2018-08-20T12:51:08.000Z</time>
      </trkpt>
      <trkpt lat="31.06003" lon="-7.92666">
        <ele>3654</ele>
        <time>2018-08-20T12:51:18.000Z</time>
      </trkpt>
      <trkpt lat="31.06004" lon="-7.92668">
        <ele>3652.43</ele>
        <time>2018-08-20T12:51:28.000Z</time>
      </trkpt>
      <trkpt lat="31.0601" lon="-7.92673">
        <ele>3656.94</ele>
        <time>2018-08-20T12:51:38.000Z</time>
      </trkpt>
      <trkpt lat="31.06014" lon="-7.92675">
        <ele>3655.95</ele>
        <time>2018-08-20T12:51:48.000Z</time>
      </trkpt>
      <trkpt lat="31.06019" lon="-7.92678">
        <ele>3650.42</ele>
        <time>2018-08-20T12:51:58.000Z</time>
      </trkpt>
      <trkpt lat="31.06025" lon="-7.92682">
        <ele>3650</ele>
        <time>2018-08-20T12:52:08.000Z</time>
      </trkpt>
      <trkpt lat="31.06029" lon="-7.92688">
        <ele>3656.12</ele>
        <time>2018-08-20T12:52:18.000Z</time>
      </trkpt>
      <trkpt lat="31.06034" lon="-7.92693">
        <ele>3654.77</ele>
        <time>2018-08-20T12:52:28.000Z</time>
      </trkpt>
      <trkpt lat="31.06036" lon="-7.92697">
        <ele>3652.25</ele>
        <time>2018-08-20T12:52:38.000Z</time>
      </trkpt>
      <trkpt lat="31.06042" lon="-7.92702">
        <ele>3652.73</ele>
        <time>2018-08-20T12:52:48.000Z</time>
      </trkpt>
      <trkpt lat="31.0604" lon="-7.92709">
        <ele>3651.97</ele>
        <time>2018-08-20T12:52:58.000Z</time>
      </trkpt>
      <trkpt lat="31.06039" lon="-7.92719">
        <ele>3653.61</ele>
        <time>2018-08-20T12:53:08.000Z</time>
      </trkpt>
      <trkpt lat="31.06044" lon="-7.92722">
        <ele>3653.99</ele>
        <time>2018-08-20T12:53:18.000Z</time>
      </trkpt>
      <trkpt lat="31.06046" lon="-7.92727">
        <ele>3650.38</ele>
        <time>2018-08-20T12:53:28.000Z</time>
      </trkpt>
      <trkpt lat="31.06048" lon="-7.92733">
        <ele>3652.92</ele>
        <time>2018-08-20T12:53:38.000Z</time>
      </trkpt>
      <trkpt lat="31.06048" lon="-7.92737">
        <ele>3654.27</ele>
        <time>2018-08-20T12:53:48.000Z</time>
      </trkpt>
      <trkpt lat="31.06046" lon="-7.92738">
        <ele>3653.98</ele>
        <time>2018-08-20T12:53:58.000Z</time>
      </trkpt>
      <trkpt lat="31.06048" lon="-7.92746">
        <ele>3655.63</ele>
        <time>2018-08-20T12:54:08.000Z</time>
      </trkpt>
      <trkpt lat="31.06049" lon="-7.92747">
        <ele>3651.33</ele>
        <time>2018-08-20T12:54:18.000Z</time>
      </trkpt>
      <trkpt lat="31.0605" lon="-7.92753">
        <ele>3646.56</ele>
        <time>2018-08-20T12:54:28.000Z</time>
      </trkpt>
      <trkpt lat="31.06051" lon="-7.92763">
        <ele>3644.94</ele>
        <time>2018-08-20T12:54:38.000Z</time>
      </trkpt>
      <trkpt lat="31.06051" lon="-7.92772">
        <ele>3639.12</ele>
        <time>2018-08-20T12:54:48.000Z</time>
      </trkpt>
      <trkpt lat="31.06047" lon="-7.92778">
        <ele>3637.06</ele>
        <time>2018-08-20T12:54:58.000Z</time>
      </trkpt>
      <trkpt lat="31.06043" lon="-7.9278">
        <ele>3633.66</ele>
        <time>2018-08-20T12:55:08.000Z</time>
      </trkpt>
      <trkpt lat="31.06049" lon="-7.9279">
        <ele>3631.54</ele>
        <time>2018-08-20T12:55:18.000Z</time>
      </trkpt>
      <trkpt lat="31.06049" lon="-7.92799">
        <ele>3626.08</ele>
        <time>2018-08-20T12:55:28.000Z</time>
      </trkpt>
      <trkpt lat="31.06049" lon="-7.92807">
        <ele>3632.19</ele>
        <time>2018-08-20T12:55:38.000Z</time>
      </trkpt>
      <trkpt lat="31.06054" lon="-7.92813">
        <ele>3631.94</ele>
        <time>2018-08-20T12:55:48.000Z</time>
      </trkpt>
      <trkpt lat="31.06059" lon="-7.92819">
        <ele>3632.76</ele>
        <time>2018-08-20T12:55:58.000Z</time>
      </trkpt>
      <trkpt lat="31.06055" lon="-7.92819">
        <ele>3628.77</ele>
        <time>2018-08-20T12:56:08.000Z</time>
      </trkpt>
      <trkpt lat="31.06054" lon="-7.92826">
        <ele>3627.1</ele>
        <time>2018-08-20T12:56:18.000Z</time>
      </trkpt>
      <trkpt lat="31.06056" lon="-7.9283">
        <ele>3624.32</ele>
        <time>2018-08-20T12:56:28.000Z</time>
      </trkpt>
      <trkpt lat="31.06058" lon="-7.92836">
        <ele>3625</ele>
        <time>2018-08-20T12:56:38.000Z</time>
      </trkpt>
      <trkpt lat="31.06056" lon="-7.92843">
        <ele>3627.26</ele>
        <time>2018-08-20T12:56:48.000Z</time>
      </trkpt>
      <trkpt lat="31.06057" lon="-7.92847">
        <ele>3624.75</ele>
        <time>2018-08-20T12:56:58.000Z</time>
      </trkpt>
      <trkpt lat="31.0606" lon="-7.92848">
        <ele>3625.31</ele>
        <time>2018-08-20T12:57:08.000Z</time>
      </trkpt>
      <trkpt lat="31.06062" lon="-7.92851">
        <ele>3623.02</ele>
        <time>2018-08-20T12:57:18.000Z</time>
      </trkpt>
      <trkpt lat="31.06066" lon="-7.92856">
        <ele>3621.07</ele>
        <time>2018-08-20T12:57:28.000Z</time>
      </trkpt>
      <trkpt lat="31.06062" lon="-7.92862">
        <ele>3620.96</ele>
        <time>2018-08-20T12:57:38.000Z</time>
      </trkpt>
      <trkpt lat="31.06061" lon="-7.92863">
        <ele>3613.34</ele>
        <time>2018-08-20T12:57:48.000Z</time>
      </trkpt>
      <trkpt lat="31.06062" lon="-7.92865">
        <ele>3609.84</ele>
        <time>2018-08-20T12:57:58.000Z</time>
      </trkpt>
      <trkpt lat="31.06063" lon="-7.92864">
        <ele>3611</ele>
        <time>2018-08-20T12:58:08.000Z</time>
      </trkpt>
      <trkpt lat="31.06064" lon="-7.92864">
        <ele>3614.43</ele>
        <time>2018-08-20T12:58:19.000Z</time>
      </trkpt>
      <trkpt lat="31.06067" lon="-7.92867">
        <ele>3617.19</ele>
        <time>2018-08-20T12:58:29.000Z</time>
      </trkpt>
      <trkpt lat="31.06067" lon="-7.92872">
        <ele>3616.06</ele>
        <time>2018-08-20T12:58:39.000Z</time>
      </trkpt>
      <trkpt lat="31.06073" lon="-7.9287">
        <ele>3615.06</ele>
        <time>2018-08-20T12:58:49.000Z</time>
      </trkpt>
      <trkpt lat="31.06075" lon="-7.92875">
        <ele>3612.06</ele>
        <time>2018-08-20T12:58:59.000Z</time>
      </trkpt>
      <trkpt lat="31.06075" lon="-7.92882">
        <ele>3610.36</ele>
        <time>2018-08-20T12:59:09.000Z</time>
      </trkpt>
      <trkpt lat="31.06076" lon="-7.92885">
        <ele>3609.8</ele>
        <time>2018-08-20T12:59:19.000Z</time>
      </trkpt>
      <trkpt lat="31.0608" lon="-7.92885">
        <ele>3608.07</ele>
        <time>2018-08-20T12:59:29.000Z</time>
      </trkpt>
      <trkpt lat="31.06084" lon="-7.92891">
        <ele>3606.06</ele>
        <time>2018-08-20T12:59:39.000Z</time>
      </trkpt>
      <trkpt lat="31.06087" lon="-7.92895">
        <ele>3604.19</ele>
        <time>2018-08-20T12:59:49.000Z</time>
      </trkpt>
      <trkpt lat="31.06088" lon="-7.92903">
        <ele>3603.44</ele>
        <time>2018-08-20T12:59:59.000Z</time>
      </trkpt>
      <trkpt lat="31.06085" lon="-7.92912">
        <ele>3602.02</ele>
        <time>2018-08-20T13:00:09.000Z</time>
      </trkpt>
      <trkpt lat="31.06087" lon="-7.92916">
        <ele>3597.21</ele>
        <time>2018-08-20T13:00:19.000Z</time>
      </trkpt>
      <trkpt lat="31.06091" lon="-7.92916">
        <ele>3594.28</ele>
        <time>2018-08-20T13:00:29.000Z</time>
      </trkpt>
      <trkpt lat="31.06093" lon="-7.92921">
        <ele>3588.38</ele>
        <time>2018-08-20T13:00:39.000Z</time>
      </trkpt>
      <trkpt lat="31.06091" lon="-7.92928">
        <ele>3587.79</ele>
        <time>2018-08-20T13:00:49.000Z</time>
      </trkpt>
      <trkpt lat="31.06086" lon="-7.9293">
        <ele>3586.19</ele>
        <time>2018-08-20T13:00:59.000Z</time>
      </trkpt>
      <trkpt lat="31.06091" lon="-7.92935">
        <ele>3588.94</ele>
        <time>2018-08-20T13:01:09.000Z</time>
      </trkpt>
      <trkpt lat="31.06092" lon="-7.92939">
        <ele>3587.19</ele>
        <time>2018-08-20T13:01:19.000Z</time>
      </trkpt>
      <trkpt lat="31.06095" lon="-7.92943">
        <ele>3588.08</ele>
        <time>2018-08-20T13:01:29.000Z</time>
      </trkpt>
      <trkpt lat="31.06097" lon="-7.92948">
        <ele>3579.33</ele>
        <time>2018-08-20T13:01:39.000Z</time>
      </trkpt>
      <trkpt lat="31.06104" lon="-7.9294">
        <ele>3578.21</ele>
        <time>2018-08-20T13:01:49.000Z</time>
      </trkpt>
      <trkpt lat="31.0611" lon="-7.92939">
        <ele>3576</ele>
        <time>2018-08-20T13:01:59.000Z</time>
      </trkpt>
      <trkpt lat="31.06104" lon="-7.92944">
        <ele>3573.93</ele>
        <time>2018-08-20T13:02:09.000Z</time>
      </trkpt>
      <trkpt lat="31.06104" lon="-7.92952">
        <ele>3575.06</ele>
        <time>2018-08-20T13:02:19.000Z</time>
      </trkpt>
      <trkpt lat="31.06099" lon="-7.92958">
        <ele>3574.74</ele>
        <time>2018-08-20T13:02:29.000Z</time>
      </trkpt>
      <trkpt lat="31.06096" lon="-7.92965">
        <ele>3574.92</ele>
        <time>2018-08-20T13:02:39.000Z</time>
      </trkpt>
      <trkpt lat="31.06096" lon="-7.92971">
        <ele>3574.88</ele>
        <time>2018-08-20T13:02:49.000Z</time>
      </trkpt>
      <trkpt lat="31.06098" lon="-7.92976">
        <ele>3575.01</ele>
        <time>2018-08-20T13:02:59.000Z</time>
      </trkpt>
      <trkpt lat="31.061" lon="-7.92977">
        <ele>3575.01</ele>
        <time>2018-08-20T13:03:09.000Z</time>
      </trkpt>
      <trkpt lat="31.06099" lon="-7.9298">
        <ele>3571.24</ele>
        <time>2018-08-20T13:03:19.000Z</time>
      </trkpt>
      <trkpt lat="31.06102" lon="-7.92982">
        <ele>3572</ele>
        <time>2018-08-20T13:03:29.000Z</time>
      </trkpt>
      <trkpt lat="31.06103" lon="-7.92985">
        <ele>3569.02</ele>
        <time>2018-08-20T13:03:39.000Z</time>
      </trkpt>
      <trkpt lat="31.06104" lon="-7.92987">
        <ele>3570</ele>
        <time>2018-08-20T13:03:49.000Z</time>
      </trkpt>
      <trkpt lat="31.06106" lon="-7.92991">
        <ele>3567.05</ele>
        <time>2018-08-20T13:03:59.000Z</time>
      </trkpt>
      <trkpt lat="31.06109" lon="-7.92996">
        <ele>3563.96</ele>
        <time>2018-08-20T13:04:09.000Z</time>
      </trkpt>
      <trkpt lat="31.06111" lon="-7.92999">
        <ele>3561.07</ele>
        <time>2018-08-20T13:04:19.000Z</time>
      </trkpt>
      <trkpt lat="31.06111" lon="-7.93">
        <ele>3560</ele>
        <time>2018-08-20T13:04:29.000Z</time>
      </trkpt>
      <trkpt lat="31.06113" lon="-7.93003">
        <ele>3556.27</ele>
        <time>2018-08-20T13:04:39.000Z</time>
      </trkpt>
      <trkpt lat="31.06115" lon="-7.93004">
        <ele>3551.5</ele>
        <time>2018-08-20T13:04:49.000Z</time>
      </trkpt>
      <trkpt lat="31.06117" lon="-7.93005">
        <ele>3550.31</ele>
        <time>2018-08-20T13:04:59.000Z</time>
      </trkpt>
      <trkpt lat="31.06121" lon="-7.9301">
        <ele>3549.18</ele>
        <time>2018-08-20T13:05:09.000Z</time>
      </trkpt>
      <trkpt lat="31.06119" lon="-7.93014">
        <ele>3547.27</ele>
        <time>2018-08-20T13:05:19.000Z</time>
      </trkpt>
      <trkpt lat="31.06122" lon="-7.93018">
        <ele>3544.26</ele>
        <time>2018-08-20T13:05:29.000Z</time>
      </trkpt>
      <trkpt lat="31.06127" lon="-7.93018">
        <ele>3542</ele>
        <time>2018-08-20T13:05:39.000Z</time>
      </trkpt>
      <trkpt lat="31.06128" lon="-7.93022">
        <ele>3540.21</ele>
        <time>2018-08-20T13:05:49.000Z</time>
      </trkpt>
      <trkpt lat="31.06127" lon="-7.93026">
        <ele>3538.24</ele>
        <time>2018-08-20T13:05:59.000Z</time>
      </trkpt>
      <trkpt lat="31.06129" lon="-7.9303">
        <ele>3538</ele>
        <time>2018-08-20T13:06:09.000Z</time>
      </trkpt>
      <trkpt lat="31.06134" lon="-7.93031">
        <ele>3539.98</ele>
        <time>2018-08-20T13:06:19.000Z</time>
      </trkpt>
      <trkpt lat="31.06136" lon="-7.93034">
        <ele>3539.02</ele>
        <time>2018-08-20T13:06:29.000Z</time>
      </trkpt>
      <trkpt lat="31.06137" lon="-7.93038">
        <ele>3535.07</ele>
        <time>2018-08-20T13:06:39.000Z</time>
      </trkpt>
      <trkpt lat="31.0614" lon="-7.93038">
        <ele>3533.17</ele>
        <time>2018-08-20T13:06:49.000Z</time>
      </trkpt>
      <trkpt lat="31.0614" lon="-7.9304">
        <ele>3528.25</ele>
        <time>2018-08-20T13:06:59.000Z</time>
      </trkpt>
      <trkpt lat="31.06141" lon="-7.93048">
        <ele>3528.73</ele>
        <time>2018-08-20T13:07:09.000Z</time>
      </trkpt>
      <trkpt lat="31.06148" lon="-7.93049">
        <ele>3527.74</ele>
        <time>2018-08-20T13:07:19.000Z</time>
      </trkpt>
      <trkpt lat="31.06147" lon="-7.9305">
        <ele>3521.34</ele>
        <time>2018-08-20T13:07:32.000Z</time>
      </trkpt>
      <trkpt lat="31.06149" lon="-7.93056">
        <ele>3518.96</ele>
        <time>2018-08-20T13:07:42.000Z</time>
      </trkpt>
      <trkpt lat="31.0615" lon="-7.93058">
        <ele>3515.07</ele>
        <time>2018-08-20T13:07:52.000Z</time>
      </trkpt>
      <trkpt lat="31.06155" lon="-7.93061">
        <ele>3514.25</ele>
        <time>2018-08-20T13:08:02.000Z</time>
      </trkpt>
      <trkpt lat="31.06156" lon="-7.93063">
        <ele>3514.25</ele>
        <time>2018-08-20T13:08:12.000Z</time>
      </trkpt>
      <trkpt lat="31.06158" lon="-7.9307">
        <ele>3513.93</ele>
        <time>2018-08-20T13:08:22.000Z</time>
      </trkpt>
      <trkpt lat="31.06163" lon="-7.93073">
        <ele>3513.64</ele>
        <time>2018-08-20T13:08:32.000Z</time>
      </trkpt>
      <trkpt lat="31.06154" lon="-7.93074">
        <ele>3512</ele>
        <time>2018-08-20T13:08:42.000Z</time>
      </trkpt>
      <trkpt lat="31.06166" lon="-7.93083">
        <ele>3507.95</ele>
        <time>2018-08-20T13:08:52.000Z</time>
      </trkpt>
      <trkpt lat="31.06166" lon="-7.93086">
        <ele>3505.92</ele>
        <time>2018-08-20T13:09:02.000Z</time>
      </trkpt>
      <trkpt lat="31.06167" lon="-7.93091">
        <ele>3506.69</ele>
        <time>2018-08-20T13:09:12.000Z</time>
      </trkpt>
      <trkpt lat="31.0617" lon="-7.93098">
        <ele>3505.25</ele>
        <time>2018-08-20T13:09:22.000Z</time>
      </trkpt>
      <trkpt lat="31.06171" lon="-7.931">
        <ele>3505</ele>
        <time>2018-08-20T13:09:32.000Z</time>
      </trkpt>
      <trkpt lat="31.06173" lon="-7.93106">
        <ele>3502</ele>
        <time>2018-08-20T13:09:42.000Z</time>
      </trkpt>
      <trkpt lat="31.06169" lon="-7.93113">
        <ele>3505.04</ele>
        <time>2018-08-20T13:09:52.000Z</time>
      </trkpt>
      <trkpt lat="31.06169" lon="-7.93116">
        <ele>3505</ele>
        <time>2018-08-20T13:10:02.000Z</time>
      </trkpt>
      <trkpt lat="31.06167" lon="-7.93123">
        <ele>3498.57</ele>
        <time>2018-08-20T13:10:12.000Z</time>
      </trkpt>
      <trkpt lat="31.06168" lon="-7.93129">
        <ele>3496.7</ele>
        <time>2018-08-20T13:10:22.000Z</time>
      </trkpt>
      <trkpt lat="31.06166" lon="-7.93133">
        <ele>3495</ele>
        <time>2018-08-20T13:10:32.000Z</time>
      </trkpt>
      <trkpt lat="31.06171" lon="-7.93139">
        <ele>3492</ele>
        <time>2018-08-20T13:10:42.000Z</time>
      </trkpt>
      <trkpt lat="31.06173" lon="-7.93144">
        <ele>3489.25</ele>
        <time>2018-08-20T13:10:52.000Z</time>
      </trkpt>
      <trkpt lat="31.06173" lon="-7.93146">
        <ele>3488.06</ele>
        <time>2018-08-20T13:11:02.000Z</time>
      </trkpt>
      <trkpt lat="31.06174" lon="-7.93153">
        <ele>3481.3</ele>
        <time>2018-08-20T13:11:12.000Z</time>
      </trkpt>
      <trkpt lat="31.06174" lon="-7.9316">
        <ele>3476.06</ele>
        <time>2018-08-20T13:11:22.000Z</time>
      </trkpt>
      <trkpt lat="31.06173" lon="-7.93164">
        <ele>3479.69</ele>
        <time>2018-08-20T13:11:32.000Z</time>
      </trkpt>
      <trkpt lat="31.06175" lon="-7.93171">
        <ele>3475.77</ele>
        <time>2018-08-20T13:11:42.000Z</time>
      </trkpt>
      <trkpt lat="31.06171" lon="-7.93177">
        <ele>3475.99</ele>
        <time>2018-08-20T13:11:52.000Z</time>
      </trkpt>
      <trkpt lat="31.0617" lon="-7.93182">
        <ele>3475.25</ele>
        <time>2018-08-20T13:12:02.000Z</time>
      </trkpt>
      <trkpt lat="31.06173" lon="-7.93188">
        <ele>3472</ele>
        <time>2018-08-20T13:12:12.000Z</time>
      </trkpt>
      <trkpt lat="31.06171" lon="-7.93192">
        <ele>3470.06</ele>
        <time>2018-08-20T13:12:22.000Z</time>
      </trkpt>
      <trkpt lat="31.06167" lon="-7.93194">
        <ele>3468.24</ele>
        <time>2018-08-20T13:12:32.000Z</time>
      </trkpt>
      <trkpt lat="31.06166" lon="-7.93196">
        <ele>3466</ele>
        <time>2018-08-20T13:12:52.000Z</time>
      </trkpt>
      <trkpt lat="31.06161" lon="-7.93204">
        <ele>3466.06</ele>
        <time>2018-08-20T13:13:02.000Z</time>
      </trkpt>
      <trkpt lat="31.06158" lon="-7.9321">
        <ele>3467.94</ele>
        <time>2018-08-20T13:13:12.000Z</time>
      </trkpt>
      <trkpt lat="31.06159" lon="-7.93215">
        <ele>3464.06</ele>
        <time>2018-08-20T13:13:22.000Z</time>
      </trkpt>
      <trkpt lat="31.06157" lon="-7.93221">
        <ele>3462.27</ele>
        <time>2018-08-20T13:13:32.000Z</time>
      </trkpt>
      <trkpt lat="31.06157" lon="-7.9323">
        <ele>3458.05</ele>
        <time>2018-08-20T13:13:42.000Z</time>
      </trkpt>
      <trkpt lat="31.06162" lon="-7.93234">
        <ele>3458.81</ele>
        <time>2018-08-20T13:13:52.000Z</time>
      </trkpt>
      <trkpt lat="31.06169" lon="-7.93238">
        <ele>3455.2</ele>
        <time>2018-08-20T13:14:02.000Z</time>
      </trkpt>
      <trkpt lat="31.06176" lon="-7.93236">
        <ele>3452.95</ele>
        <time>2018-08-20T13:14:12.000Z</time>
      </trkpt>
      <trkpt lat="31.06177" lon="-7.9324">
        <ele>3452.95</ele>
        <time>2018-08-20T13:14:22.000Z</time>
      </trkpt>
      <trkpt lat="31.06181" lon="-7.93235">
        <ele>3446.33</ele>
        <time>2018-08-20T13:14:32.000Z</time>
      </trkpt>
      <trkpt lat="31.06193" lon="-7.93231">
        <ele>3448.5</ele>
        <time>2018-08-20T13:14:42.000Z</time>
      </trkpt>
      <trkpt lat="31.06204" lon="-7.93232">
        <ele>3443.05</ele>
        <time>2018-08-20T13:14:52.000Z</time>
      </trkpt>
      <trkpt lat="31.06203" lon="-7.93237">
        <ele>3443.06</ele>
        <time>2018-08-20T13:15:02.000Z</time>
      </trkpt>
      <trkpt lat="31.0621" lon="-7.9324">
        <ele>3441.25</ele>
        <time>2018-08-20T13:15:12.000Z</time>
      </trkpt>
      <trkpt lat="31.06214" lon="-7.93238">
        <ele>3440.69</ele>
        <time>2018-08-20T13:15:22.000Z</time>
      </trkpt>
      <trkpt lat="31.06223" lon="-7.93243">
        <ele>3441.98</ele>
        <time>2018-08-20T13:15:32.000Z</time>
      </trkpt>
      <trkpt lat="31.06228" lon="-7.93243">
        <ele>3442.68</ele>
        <time>2018-08-20T13:15:42.000Z</time>
      </trkpt>
      <trkpt lat="31.06234" lon="-7.93243">
        <ele>3438.27</ele>
        <time>2018-08-20T13:15:52.000Z</time>
      </trkpt>
      <trkpt lat="31.06241" lon="-7.93236">
        <ele>3437.02</ele>
        <time>2018-08-20T13:16:02.000Z</time>
      </trkpt>
      <trkpt lat="31.06244" lon="-7.93237">
        <ele>3435.06</ele>
        <time>2018-08-20T13:16:12.000Z</time>
      </trkpt>
      <trkpt lat="31.06241" lon="-7.93238">
        <ele>3434.75</ele>
        <time>2018-08-20T13:16:29.000Z</time>
      </trkpt>
      <trkpt lat="31.06243" lon="-7.93246">
        <ele>3433.06</ele>
        <time>2018-08-20T13:16:39.000Z</time>
      </trkpt>
      <trkpt lat="31.06248" lon="-7.93248">
        <ele>3431</ele>
        <time>2018-08-20T13:16:49.000Z</time>
      </trkpt>
      <trkpt lat="31.06252" lon="-7.93248">
        <ele>3429.06</ele>
        <time>2018-08-20T13:16:59.000Z</time>
      </trkpt>
      <trkpt lat="31.06255" lon="-7.93254">
        <ele>3427.25</ele>
        <time>2018-08-20T13:17:09.000Z</time>
      </trkpt>
      <trkpt lat="31.06255" lon="-7.9326">
        <ele>3425.06</ele>
        <time>2018-08-20T13:17:19.000Z</time>
      </trkpt>
      <trkpt lat="31.06261" lon="-7.93262">
        <ele>3423.19</ele>
        <time>2018-08-20T13:17:29.000Z</time>
      </trkpt>
      <trkpt lat="31.06266" lon="-7.93263">
        <ele>3424.92</ele>
        <time>2018-08-20T13:17:39.000Z</time>
      </trkpt>
      <trkpt lat="31.06266" lon="-7.93268">
        <ele>3424.25</ele>
        <time>2018-08-20T13:17:49.000Z</time>
      </trkpt>
      <trkpt lat="31.06272" lon="-7.9327">
        <ele>3424.18</ele>
        <time>2018-08-20T13:17:59.000Z</time>
      </trkpt>
      <trkpt lat="31.06273" lon="-7.93275">
        <ele>3420.75</ele>
        <time>2018-08-20T13:18:09.000Z</time>
      </trkpt>
      <trkpt lat="31.06272" lon="-7.93276">
        <ele>3421.23</ele>
        <time>2018-08-20T13:18:19.000Z</time>
      </trkpt>
      <trkpt lat="31.06274" lon="-7.9328">
        <ele>3417.75</ele>
        <time>2018-08-20T13:18:29.000Z</time>
      </trkpt>
      <trkpt lat="31.06275" lon="-7.93284">
        <ele>3413.95</ele>
        <time>2018-08-20T13:18:39.000Z</time>
      </trkpt>
      <trkpt lat="31.06271" lon="-7.9329">
        <ele>3411.06</ele>
        <time>2018-08-20T13:18:49.000Z</time>
      </trkpt>
      <trkpt lat="31.06265" lon="-7.93293">
        <ele>3408.81</ele>
        <time>2018-08-20T13:18:59.000Z</time>
      </trkpt>
      <trkpt lat="31.06266" lon="-7.93298">
        <ele>3405.3</ele>
        <time>2018-08-20T13:19:09.000Z</time>
      </trkpt>
      <trkpt lat="31.06269" lon="-7.93304">
        <ele>3405</ele>
        <time>2018-08-20T13:19:19.000Z</time>
      </trkpt>
      <trkpt lat="31.06265" lon="-7.93306">
        <ele>3403.56</ele>
        <time>2018-08-20T13:19:29.000Z</time>
      </trkpt>
      <trkpt lat="31.06262" lon="-7.93314">
        <ele>3398.33</ele>
        <time>2018-08-20T13:19:39.000Z</time>
      </trkpt>
      <trkpt lat="31.06262" lon="-7.93321">
        <ele>3396.31</ele>
        <time>2018-08-20T13:19:49.000Z</time>
      </trkpt>
      <trkpt lat="31.06258" lon="-7.93324">
        <ele>3391.77</ele>
        <time>2018-08-20T13:19:59.000Z</time>
      </trkpt>
      <trkpt lat="31.06253" lon="-7.93329">
        <ele>3393.88</ele>
        <time>2018-08-20T13:20:09.000Z</time>
      </trkpt>
      <trkpt lat="31.06253" lon="-7.93335">
        <ele>3390.77</ele>
        <time>2018-08-20T13:20:19.000Z</time>
      </trkpt>
      <trkpt lat="31.06254" lon="-7.9334">
        <ele>3390.7</ele>
        <time>2018-08-20T13:20:29.000Z</time>
      </trkpt>
      <trkpt lat="31.06249" lon="-7.93346">
        <ele>3389.07</ele>
        <time>2018-08-20T13:20:39.000Z</time>
      </trkpt>
      <trkpt lat="31.06248" lon="-7.93353">
        <ele>3384.13</ele>
        <time>2018-08-20T13:20:49.000Z</time>
      </trkpt>
      <trkpt lat="31.06245" lon="-7.93356">
        <ele>3381.01</ele>
        <time>2018-08-20T13:20:59.000Z</time>
      </trkpt>
      <trkpt lat="31.06243" lon="-7.93356">
        <ele>3381</ele>
        <time>2018-08-20T13:21:09.000Z</time>
      </trkpt>
      <trkpt lat="31.06234" lon="-7.93361">
        <ele>3389.81</ele>
        <time>2018-08-20T13:21:19.000Z</time>
      </trkpt>
      <trkpt lat="31.06232" lon="-7.93362">
        <ele>3392</ele>
        <time>2018-08-20T13:21:29.000Z</time>
      </trkpt>
      <trkpt lat="31.06231" lon="-7.93365">
        <ele>3388.02</ele>
        <time>2018-08-20T13:21:39.000Z</time>
      </trkpt>
      <trkpt lat="31.06232" lon="-7.93365">
        <ele>3380.52</ele>
        <time>2018-08-20T13:21:50.000Z</time>
      </trkpt>
      <trkpt lat="31.06232" lon="-7.93367">
        <ele>3378.71</ele>
        <time>2018-08-20T13:22:00.000Z</time>
      </trkpt>
      <trkpt lat="31.0623" lon="-7.93373">
        <ele>3378.13</ele>
        <time>2018-08-20T13:22:10.000Z</time>
      </trkpt>
      <trkpt lat="31.06227" lon="-7.93378">
        <ele>3373.86</ele>
        <time>2018-08-20T13:22:20.000Z</time>
      </trkpt>
      <trkpt lat="31.06229" lon="-7.9338">
        <ele>3371.03</ele>
        <time>2018-08-20T13:22:30.000Z</time>
      </trkpt>
      <trkpt lat="31.06231" lon="-7.93387">
        <ele>3374.24</ele>
        <time>2018-08-20T13:22:40.000Z</time>
      </trkpt>
      <trkpt lat="31.06228" lon="-7.93387">
        <ele>3458.82</ele>
        <time>2018-08-20T13:22:50.000Z</time>
      </trkpt>
      <trkpt lat="31.06226" lon="-7.93388">
        <ele>3384.69</ele>
        <time>2018-08-20T13:23:00.000Z</time>
      </trkpt>
      <trkpt lat="31.06225" lon="-7.93388">
        <ele>3383.12</ele>
        <time>2018-08-20T13:23:10.000Z</time>
      </trkpt>
      <trkpt lat="31.06225" lon="-7.93391">
        <ele>3377.57</ele>
        <time>2018-08-20T13:23:20.000Z</time>
      </trkpt>
      <trkpt lat="31.06225" lon="-7.93395">
        <ele>3373.35</ele>
        <time>2018-08-20T13:23:30.000Z</time>
      </trkpt>
      <trkpt lat="31.06222" lon="-7.93397">
        <ele>3371.75</ele>
        <time>2018-08-20T13:23:40.000Z</time>
      </trkpt>
      <trkpt lat="31.06221" lon="-7.93396">
        <ele>3372.25</ele>
        <time>2018-08-20T13:23:55.000Z</time>
      </trkpt>
      <trkpt lat="31.06216" lon="-7.93397">
        <ele>3375.39</ele>
        <time>2018-08-20T13:24:05.000Z</time>
      </trkpt>
      <trkpt lat="31.06215" lon="-7.93397">
        <ele>3379.94</ele>
        <time>2018-08-20T13:24:15.000Z</time>
      </trkpt>
      <trkpt lat="31.06209" lon="-7.934">
        <ele>3374.81</ele>
        <time>2018-08-20T13:24:25.000Z</time>
      </trkpt>
      <trkpt lat="31.06208" lon="-7.93403">
        <ele>3371.24</ele>
        <time>2018-08-20T13:24:35.000Z</time>
      </trkpt>
      <trkpt lat="31.06205" lon="-7.93407">
        <ele>3369.26</ele>
        <time>2018-08-20T13:24:45.000Z</time>
      </trkpt>
      <trkpt lat="31.06201" lon="-7.93417">
        <ele>3366.06</ele>
        <time>2018-08-20T13:24:55.000Z</time>
      </trkpt>
      <trkpt lat="31.062" lon="-7.93422">
        <ele>3360.28</ele>
        <time>2018-08-20T13:25:05.000Z</time>
      </trkpt>
      <trkpt lat="31.06202" lon="-7.93422">
        <ele>3359.01</ele>
        <time>2018-08-20T13:25:15.000Z</time>
      </trkpt>
      <trkpt lat="31.06203" lon="-7.93423">
        <ele>3356.13</ele>
        <time>2018-08-20T13:25:25.000Z</time>
      </trkpt>
      <trkpt lat="31.06197" lon="-7.93424">
        <ele>3360.94</ele>
        <time>2018-08-20T13:25:35.000Z</time>
      </trkpt>
      <trkpt lat="31.06196" lon="-7.93431">
        <ele>3359.7</ele>
        <time>2018-08-20T13:25:45.000Z</time>
      </trkpt>
      <trkpt lat="31.06197" lon="-7.93429">
        <ele>3359</ele>
        <time>2018-08-20T13:26:17.000Z</time>
      </trkpt>
      <trkpt lat="31.06198" lon="-7.93431">
        <ele>3359.08</ele>
        <time>2018-08-20T13:26:27.000Z</time>
      </trkpt>
      <trkpt lat="31.06199" lon="-7.9343">
        <ele>3358.25</ele>
        <time>2018-08-20T13:26:41.000Z</time>
      </trkpt>
      <trkpt lat="31.06198" lon="-7.93431">
        <ele>3359.75</ele>
        <time>2018-08-20T13:26:51.000Z</time>
      </trkpt>
      <trkpt lat="31.06197" lon="-7.93431">
        <ele>3360</ele>
        <time>2018-08-20T13:27:05.000Z</time>
      </trkpt>
      <trkpt lat="31.06197" lon="-7.93432">
        <ele>3360</ele>
        <time>2018-08-20T13:27:16.000Z</time>
      </trkpt>
      <trkpt lat="31.06192" lon="-7.93441">
        <ele>3357.99</ele>
        <time>2018-08-20T13:27:26.000Z</time>
      </trkpt>
      <trkpt lat="31.06192" lon="-7.93443">
        <ele>3354.97</ele>
        <time>2018-08-20T13:27:36.000Z</time>
      </trkpt>
      <trkpt lat="31.06193" lon="-7.93445">
        <ele>3353.02</ele>
        <time>2018-08-20T13:27:46.000Z</time>
      </trkpt>
      <trkpt lat="31.06195" lon="-7.93446">
        <ele>3353.71</ele>
        <time>2018-08-20T13:27:56.000Z</time>
      </trkpt>
      <trkpt lat="31.06196" lon="-7.9345">
        <ele>3354.24</ele>
        <time>2018-08-20T13:28:06.000Z</time>
      </trkpt>
      <trkpt lat="31.062" lon="-7.93451">
        <ele>3354.98</ele>
        <time>2018-08-20T13:28:16.000Z</time>
      </trkpt>
      <trkpt lat="31.06196" lon="-7.93457">
        <ele>3349.32</ele>
        <time>2018-08-20T13:28:26.000Z</time>
      </trkpt>
      <trkpt lat="31.06193" lon="-7.93468">
        <ele>3343.04</ele>
        <time>2018-08-20T13:28:36.000Z</time>
      </trkpt>
      <trkpt lat="31.06191" lon="-7.93477">
        <ele>3338.24</ele>
        <time>2018-08-20T13:28:46.000Z</time>
      </trkpt>
      <trkpt lat="31.06186" lon="-7.93482">
        <ele>3336.06</ele>
        <time>2018-08-20T13:28:56.000Z</time>
      </trkpt>
      <trkpt lat="31.06182" lon="-7.93488">
        <ele>3333.18</ele>
        <time>2018-08-20T13:29:06.000Z</time>
      </trkpt>
      <trkpt lat="31.06177" lon="-7.93491">
        <ele>3333.27</ele>
        <time>2018-08-20T13:29:16.000Z</time>
      </trkpt>
      <trkpt lat="31.06175" lon="-7.93498">
        <ele>3329.06</ele>
        <time>2018-08-20T13:29:26.000Z</time>
      </trkpt>
      <trkpt lat="31.06174" lon="-7.93505">
        <ele>3327.63</ele>
        <time>2018-08-20T13:29:36.000Z</time>
      </trkpt>
      <trkpt lat="31.06174" lon="-7.93508">
        <ele>3337.05</ele>
        <time>2018-08-20T13:29:46.000Z</time>
      </trkpt>
      <trkpt lat="31.0617" lon="-7.93515">
        <ele>3326.58</ele>
        <time>2018-08-20T13:29:56.000Z</time>
      </trkpt>
      <trkpt lat="31.06168" lon="-7.93521">
        <ele>3324</ele>
        <time>2018-08-20T13:30:06.000Z</time>
      </trkpt>
      <trkpt lat="31.06171" lon="-7.93528">
        <ele>3321.11</ele>
        <time>2018-08-20T13:30:16.000Z</time>
      </trkpt>
      <trkpt lat="31.06167" lon="-7.93541">
        <ele>3323.98</ele>
        <time>2018-08-20T13:30:26.000Z</time>
      </trkpt>
      <trkpt lat="31.0616" lon="-7.93543">
        <ele>3313.81</ele>
        <time>2018-08-20T13:30:36.000Z</time>
      </trkpt>
      <trkpt lat="31.06162" lon="-7.93551">
        <ele>3309.14</ele>
        <time>2018-08-20T13:30:46.000Z</time>
      </trkpt>
      <trkpt lat="31.06176" lon="-7.93553">
        <ele>3300.09</ele>
        <time>2018-08-20T13:30:56.000Z</time>
      </trkpt>
      <trkpt lat="31.06186" lon="-7.93559">
        <ele>3293.31</ele>
        <time>2018-08-20T13:31:06.000Z</time>
      </trkpt>
      <trkpt lat="31.0619" lon="-7.93567">
        <ele>3290</ele>
        <time>2018-08-20T13:31:16.000Z</time>
      </trkpt>
      <trkpt lat="31.06191" lon="-7.9358">
        <ele>3367</ele>
        <time>2018-08-20T13:31:26.000Z</time>
      </trkpt>
      <trkpt lat="31.06189" lon="-7.93593">
        <ele>3294.8</ele>
        <time>2018-08-20T13:31:36.000Z</time>
      </trkpt>
      <trkpt lat="31.06193" lon="-7.93611">
        <ele>3282.34</ele>
        <time>2018-08-20T13:31:46.000Z</time>
      </trkpt>
      <trkpt lat="31.06191" lon="-7.93627">
        <ele>3276.74</ele>
        <time>2018-08-20T13:31:56.000Z</time>
      </trkpt>
      <trkpt lat="31.06188" lon="-7.93639">
        <ele>3272.33</ele>
        <time>2018-08-20T13:32:06.000Z</time>
      </trkpt>
      <trkpt lat="31.06191" lon="-7.93654">
        <ele>3267.01</ele>
        <time>2018-08-20T13:32:16.000Z</time>
      </trkpt>
      <trkpt lat="31.06198" lon="-7.93667">
        <ele>3261.27</ele>
        <time>2018-08-20T13:32:26.000Z</time>
      </trkpt>
      <trkpt lat="31.06202" lon="-7.93674">
        <ele>3255.08</ele>
        <time>2018-08-20T13:32:36.000Z</time>
      </trkpt>
      <trkpt lat="31.06203" lon="-7.93679">
        <ele>3248.07</ele>
        <time>2018-08-20T13:32:46.000Z</time>
      </trkpt>
      <trkpt lat="31.06207" lon="-7.93687">
        <ele>3245.07</ele>
        <time>2018-08-20T13:32:56.000Z</time>
      </trkpt>
      <trkpt lat="31.06211" lon="-7.93685">
        <ele>3245.08</ele>
        <time>2018-08-20T13:33:06.000Z</time>
      </trkpt>
      <trkpt lat="31.06216" lon="-7.93681">
        <ele>3243.03</ele>
        <time>2018-08-20T13:33:16.000Z</time>
      </trkpt>
      <trkpt lat="31.0622" lon="-7.93678">
        <ele>3242.11</ele>
        <time>2018-08-20T13:33:26.000Z</time>
      </trkpt>
      <trkpt lat="31.06219" lon="-7.93693">
        <ele>3245.91</ele>
        <time>2018-08-20T13:33:36.000Z</time>
      </trkpt>
      <trkpt lat="31.06226" lon="-7.93699">
        <ele>3244</ele>
        <time>2018-08-20T13:33:46.000Z</time>
      </trkpt>
      <trkpt lat="31.06234" lon="-7.93704">
        <ele>3242.13</ele>
        <time>2018-08-20T13:33:56.000Z</time>
      </trkpt>
      <trkpt lat="31.06243" lon="-7.93711">
        <ele>3239.27</ele>
        <time>2018-08-20T13:34:06.000Z</time>
      </trkpt>
      <trkpt lat="31.06248" lon="-7.93719">
        <ele>3235.07</ele>
        <time>2018-08-20T13:34:16.000Z</time>
      </trkpt>
      <trkpt lat="31.06249" lon="-7.93728">
        <ele>3233.75</ele>
        <time>2018-08-20T13:34:26.000Z</time>
      </trkpt>
      <trkpt lat="31.06253" lon="-7.93742">
        <ele>3234</ele>
        <time>2018-08-20T13:34:36.000Z</time>
      </trkpt>
      <trkpt lat="31.0626" lon="-7.93746">
        <ele>3229.13</ele>
        <time>2018-08-20T13:34:46.000Z</time>
      </trkpt>
      <trkpt lat="31.06267" lon="-7.93759">
        <ele>3228.25</ele>
        <time>2018-08-20T13:34:56.000Z</time>
      </trkpt>
      <trkpt lat="31.06264" lon="-7.93764">
        <ele>3228.19</ele>
        <time>2018-08-20T13:35:06.000Z</time>
      </trkpt>
      <trkpt lat="31.06265" lon="-7.93766">
        <ele>3227</ele>
        <time>2018-08-20T13:35:17.000Z</time>
      </trkpt>
      <trkpt lat="31.06261" lon="-7.93771">
        <ele>3222.75</ele>
        <time>2018-08-20T13:35:27.000Z</time>
      </trkpt>
      <trkpt lat="31.06272" lon="-7.93774">
        <ele>3220.06</ele>
        <time>2018-08-20T13:35:37.000Z</time>
      </trkpt>
      <trkpt lat="31.06289" lon="-7.93768">
        <ele>3221.01</ele>
        <time>2018-08-20T13:35:47.000Z</time>
      </trkpt>
      <trkpt lat="31.06302" lon="-7.93771">
        <ele>3225.04</ele>
        <time>2018-08-20T13:35:57.000Z</time>
      </trkpt>
      <trkpt lat="31.06313" lon="-7.93773">
        <ele>3225.31</ele>
        <time>2018-08-20T13:36:07.000Z</time>
      </trkpt>
      <trkpt lat="31.06322" lon="-7.93774">
        <ele>3223.23</ele>
        <time>2018-08-20T13:36:17.000Z</time>
      </trkpt>
      <trkpt lat="31.06332" lon="-7.93775">
        <ele>3218.27</ele>
        <time>2018-08-20T13:36:27.000Z</time>
      </trkpt>
      <trkpt lat="31.06341" lon="-7.93782">
        <ele>3216.27</ele>
        <time>2018-08-20T13:36:37.000Z</time>
      </trkpt>
      <trkpt lat="31.06349" lon="-7.93788">
        <ele>3213.25</ele>
        <time>2018-08-20T13:36:47.000Z</time>
      </trkpt>
      <trkpt lat="31.06352" lon="-7.93777">
        <ele>3211.01</ele>
        <time>2018-08-20T13:36:57.000Z</time>
      </trkpt>
      <trkpt lat="31.06361" lon="-7.93769">
        <ele>3215.93</ele>
        <time>2018-08-20T13:37:07.000Z</time>
      </trkpt>
      <trkpt lat="31.06366" lon="-7.93764">
        <ele>3216.01</ele>
        <time>2018-08-20T13:37:17.000Z</time>
      </trkpt>
      <trkpt lat="31.06372" lon="-7.93762">
        <ele>3214</ele>
        <time>2018-08-20T13:37:27.000Z</time>
      </trkpt>
      <trkpt lat="31.0638" lon="-7.93766">
        <ele>3210.27</ele>
        <time>2018-08-20T13:37:37.000Z</time>
      </trkpt>
      <trkpt lat="31.06387" lon="-7.93778">
        <ele>3207.24</ele>
        <time>2018-08-20T13:37:47.000Z</time>
      </trkpt>
      <trkpt lat="31.06395" lon="-7.93792">
        <ele>3204.08</ele>
        <time>2018-08-20T13:37:57.000Z</time>
      </trkpt>
      <trkpt lat="31.06409" lon="-7.93797">
        <ele>3200.02</ele>
        <time>2018-08-20T13:38:07.000Z</time>
      </trkpt>
      <trkpt lat="31.06421" lon="-7.93796">
        <ele>3197.08</ele>
        <time>2018-08-20T13:38:17.000Z</time>
      </trkpt>
      <trkpt lat="31.06426" lon="-7.93793">
        <ele>3198</ele>
        <time>2018-08-20T13:38:27.000Z</time>
      </trkpt>
      <trkpt lat="31.06439" lon="-7.93787">
        <ele>3198.43</ele>
        <time>2018-08-20T13:38:37.000Z</time>
      </trkpt>
      <trkpt lat="31.06441" lon="-7.93783">
        <ele>3199.99</ele>
        <time>2018-08-20T13:38:47.000Z</time>
      </trkpt>
      <trkpt lat="31.06447" lon="-7.93781">
        <ele>3201.81</ele>
        <time>2018-08-20T13:38:57.000Z</time>
      </trkpt>
      <trkpt lat="31.06456" lon="-7.9378">
        <ele>3201.03</ele>
        <time>2018-08-20T13:39:07.000Z</time>
      </trkpt>
      <trkpt lat="31.06466" lon="-7.93786">
        <ele>3197.05</ele>
        <time>2018-08-20T13:39:17.000Z</time>
      </trkpt>
      <trkpt lat="31.06467" lon="-7.93781">
        <ele>3203.01</ele>
        <time>2018-08-20T13:39:27.000Z</time>
      </trkpt>
      <trkpt lat="31.0647" lon="-7.93778">
        <ele>3201.19</ele>
        <time>2018-08-20T13:39:37.000Z</time>
      </trkpt>
      <trkpt lat="31.06468" lon="-7.93779">
        <ele>3199</ele>
        <time>2018-08-20T13:39:47.000Z</time>
      </trkpt>
      <trkpt lat="31.06474" lon="-7.93778">
        <ele>3201.92</ele>
        <time>2018-08-20T13:39:57.000Z</time>
      </trkpt>
      <trkpt lat="31.06486" lon="-7.93775">
        <ele>3202.75</ele>
        <time>2018-08-20T13:40:07.000Z</time>
      </trkpt>
      <trkpt lat="31.06495" lon="-7.93771">
        <ele>3201.8</ele>
        <time>2018-08-20T13:40:17.000Z</time>
      </trkpt>
      <trkpt lat="31.06498" lon="-7.93765">
        <ele>3199.09</ele>
        <time>2018-08-20T13:40:27.000Z</time>
      </trkpt>
      <trkpt lat="31.06495" lon="-7.93766">
        <ele>3197</ele>
        <time>2018-08-20T13:40:37.000Z</time>
      </trkpt>
      <trkpt lat="31.06499" lon="-7.93766">
        <ele>3198.75</ele>
        <time>2018-08-20T13:40:47.000Z</time>
      </trkpt>
      <trkpt lat="31.06497" lon="-7.93765">
        <ele>3203</ele>
        <time>2018-08-20T13:40:57.000Z</time>
      </trkpt>
      <trkpt lat="31.06497" lon="-7.93769">
        <ele>3194.37</ele>
        <time>2018-08-20T13:41:07.000Z</time>
      </trkpt>
      <trkpt lat="31.06497" lon="-7.93767">
        <ele>3216.25</ele>
        <time>2018-08-20T13:42:02.000Z</time>
      </trkpt>
      <trkpt lat="31.06505" lon="-7.93754">
        <ele>3231.75</ele>
        <time>2018-08-20T13:42:12.000Z</time>
      </trkpt>
      <trkpt lat="31.06507" lon="-7.9375">
        <ele>3211.76</ele>
        <time>2018-08-20T13:42:22.000Z</time>
      </trkpt>
      <trkpt lat="31.06503" lon="-7.93747">
        <ele>3202.53</ele>
        <time>2018-08-20T13:42:54.000Z</time>
      </trkpt>
      <trkpt lat="31.06496" lon="-7.93745">
        <ele>3180.99</ele>
        <time>2018-08-20T13:43:04.000Z</time>
      </trkpt>
      <trkpt lat="31.06491" lon="-7.93738">
        <ele>3181.73</ele>
        <time>2018-08-20T13:43:14.000Z</time>
      </trkpt>
      <trkpt lat="31.06494" lon="-7.93729">
        <ele>3182.87</ele>
        <time>2018-08-20T13:43:24.000Z</time>
      </trkpt>
      <trkpt lat="31.06494" lon="-7.93724">
        <ele>3185.75</ele>
        <time>2018-08-20T13:43:34.000Z</time>
      </trkpt>
      <trkpt lat="31.06486" lon="-7.93727">
        <ele>3182.93</ele>
        <time>2018-08-20T13:43:44.000Z</time>
      </trkpt>
      <trkpt lat="31.06485" lon="-7.93726">
        <ele>3185.77</ele>
        <time>2018-08-20T13:43:54.000Z</time>
      </trkpt>
      <trkpt lat="31.06486" lon="-7.93726">
        <ele>3181.44</ele>
        <time>2018-08-20T13:44:04.000Z</time>
      </trkpt>
      <trkpt lat="31.06486" lon="-7.93727">
        <ele>3178.13</ele>
        <time>2018-08-20T13:44:14.000Z</time>
      </trkpt>
      <trkpt lat="31.06485" lon="-7.93728">
        <ele>3178.92</ele>
        <time>2018-08-20T13:44:24.000Z</time>
      </trkpt>
      <trkpt lat="31.06482" lon="-7.93727">
        <ele>3180.99</ele>
        <time>2018-08-20T13:44:34.000Z</time>
      </trkpt>
      <trkpt lat="31.06483" lon="-7.93726">
        <ele>3180.98</ele>
        <time>2018-08-20T13:44:44.000Z</time>
      </trkpt>
      <trkpt lat="31.06483" lon="-7.93725">
        <ele>3182</ele>
        <time>2018-08-20T13:47:09.000Z</time>
      </trkpt>
      <trkpt lat="31.06482" lon="-7.93724">
        <ele>3179.95</ele>
        <time>2018-08-20T13:47:19.000Z</time>
      </trkpt>
      <trkpt lat="31.06484" lon="-7.93723">
        <ele>3179.74</ele>
        <time>2018-08-20T13:47:58.000Z</time>
      </trkpt>
      <trkpt lat="31.06483" lon="-7.93724">
        <ele>3175.02</ele>
        <time>2018-08-20T13:48:08.000Z</time>
      </trkpt>
      <trkpt lat="31.06484" lon="-7.93724">
        <ele>3176</ele>
        <time>2018-08-20T13:49:11.000Z</time>
      </trkpt>
      <trkpt lat="31.06483" lon="-7.93725">
        <ele>3178.05</ele>
        <time>2018-08-20T13:49:21.000Z</time>
      </trkpt>
      <trkpt lat="31.0648" lon="-7.93726">
        <ele>3177.75</ele>
        <time>2018-08-20T13:49:31.000Z</time>
      </trkpt>
      <trkpt lat="31.06478" lon="-7.93729">
        <ele>3178.98</ele>
        <time>2018-08-20T13:49:41.000Z</time>
      </trkpt>
      <trkpt lat="31.06482" lon="-7.93728">
        <ele>3181.98</ele>
        <time>2018-08-20T13:49:51.000Z</time>
      </trkpt>
      <trkpt lat="31.06483" lon="-7.93728">
        <ele>3182.75</ele>
        <time>2018-08-20T13:50:31.000Z</time>
      </trkpt>
      <trkpt lat="31.06483" lon="-7.93726">
        <ele>3187</ele>
        <time>2018-08-20T13:50:41.000Z</time>
      </trkpt>
      <trkpt lat="31.06483" lon="-7.93729">
        <ele>3181.08</ele>
        <time>2018-08-20T13:50:51.000Z</time>
      </trkpt>
      <trkpt lat="31.06486" lon="-7.93726">
        <ele>3187.67</ele>
        <time>2018-08-20T13:51:01.000Z</time>
      </trkpt>
      <trkpt lat="31.06482" lon="-7.93727">
        <ele>3191.42</ele>
        <time>2018-08-20T13:51:11.000Z</time>
      </trkpt>
      <trkpt lat="31.06484" lon="-7.93727">
        <ele>3182.33</ele>
        <time>2018-08-20T13:51:21.000Z</time>
      </trkpt>
      <trkpt lat="31.06482" lon="-7.93729">
        <ele>3179</ele>
        <time>2018-08-20T13:51:31.000Z</time>
      </trkpt>
      <trkpt lat="31.06483" lon="-7.93731">
        <ele>3176.75</ele>
        <time>2018-08-20T13:51:41.000Z</time>
      </trkpt>
      <trkpt lat="31.06484" lon="-7.93731">
        <ele>3173.03</ele>
        <time>2018-08-20T13:51:51.000Z</time>
      </trkpt>
      <trkpt lat="31.06482" lon="-7.93733">
        <ele>3164.97</ele>
        <time>2018-08-20T13:52:01.000Z</time>
      </trkpt>
      <trkpt lat="31.06479" lon="-7.93733">
        <ele>3170.94</ele>
        <time>2018-08-20T13:52:11.000Z</time>
      </trkpt>
      <trkpt lat="31.06481" lon="-7.93733">
        <ele>3172</ele>
        <time>2018-08-20T13:52:21.000Z</time>
      </trkpt>
      <trkpt lat="31.0648" lon="-7.93733">
        <ele>3176.06</ele>
        <time>2018-08-20T13:52:31.000Z</time>
      </trkpt>
      <trkpt lat="31.0648" lon="-7.93732">
        <ele>3172.94</ele>
        <time>2018-08-20T13:52:41.000Z</time>
      </trkpt>
      <trkpt lat="31.06482" lon="-7.93731">
        <ele>3174.81</ele>
        <time>2018-08-20T13:52:51.000Z</time>
      </trkpt>
      <trkpt lat="31.06482" lon="-7.93732">
        <ele>3176.69</ele>
        <time>2018-08-20T13:53:46.000Z</time>
      </trkpt>
      <trkpt lat="31.06479" lon="-7.93728">
        <ele>3179</ele>
        <time>2018-08-20T13:53:56.000Z</time>
      </trkpt>
      <trkpt lat="31.06476" lon="-7.93725">
        <ele>3185.18</ele>
        <time>2018-08-20T13:54:06.000Z</time>
      </trkpt>
      <trkpt lat="31.06479" lon="-7.93725">
        <ele>3187.23</ele>
        <time>2018-08-20T13:54:16.000Z</time>
      </trkpt>
      <trkpt lat="31.0648" lon="-7.93725">
        <ele>3192.98</ele>
        <time>2018-08-20T13:54:38.000Z</time>
      </trkpt>
      <trkpt lat="31.0648" lon="-7.93726">
        <ele>3191.75</ele>
        <time>2018-08-20T13:54:48.000Z</time>
      </trkpt>
      <trkpt lat="31.06481" lon="-7.93726">
        <ele>3191.06</ele>
        <time>2018-08-20T13:55:06.000Z</time>
      </trkpt>
      <trkpt lat="31.06483" lon="-7.93726">
        <ele>3191.77</ele>
        <time>2018-08-20T13:55:16.000Z</time>
      </trkpt>
      <trkpt lat="31.06481" lon="-7.93731">
        <ele>3184.99</ele>
        <time>2018-08-20T13:55:26.000Z</time>
      </trkpt>
      <trkpt lat="31.06482" lon="-7.9373">
        <ele>3186.5</ele>
        <time>2018-08-20T13:55:41.000Z</time>
      </trkpt>
      <trkpt lat="31.0648" lon="-7.93726">
        <ele>3183.56</ele>
        <time>2018-08-20T13:55:51.000Z</time>
      </trkpt>
      <trkpt lat="31.06479" lon="-7.93725">
        <ele>3188.48</ele>
        <time>2018-08-20T13:56:01.000Z</time>
      </trkpt>
      <trkpt lat="31.0648" lon="-7.93726">
        <ele>3188.94</ele>
        <time>2018-08-20T13:56:17.000Z</time>
      </trkpt>
      <trkpt lat="31.06481" lon="-7.93727">
        <ele>3189.75</ele>
        <time>2018-08-20T13:57:33.000Z</time>
      </trkpt>
      <trkpt lat="31.06481" lon="-7.93726">
        <ele>3190.94</ele>
        <time>2018-08-20T13:57:43.000Z</time>
      </trkpt>
      <trkpt lat="31.06482" lon="-7.93727">
        <ele>3185.95</ele>
        <time>2018-08-20T13:57:53.000Z</time>
      </trkpt>
      <trkpt lat="31.06482" lon="-7.93729">
        <ele>3185.26</ele>
        <time>2018-08-20T13:58:03.000Z</time>
      </trkpt>
      <trkpt lat="31.0648" lon="-7.93729">
        <ele>3182.08</ele>
        <time>2018-08-20T13:58:13.000Z</time>
      </trkpt>
      <trkpt lat="31.06482" lon="-7.93726">
        <ele>3183</ele>
        <time>2018-08-20T13:58:23.000Z</time>
      </trkpt>
      <trkpt lat="31.06482" lon="-7.93725">
        <ele>3183</ele>
        <time>2018-08-20T13:58:36.000Z</time>
      </trkpt>
      <trkpt lat="31.06478" lon="-7.93722">
        <ele>3188.16</ele>
        <time>2018-08-20T13:58:46.000Z</time>
      </trkpt>
      <trkpt lat="31.06476" lon="-7.9372">
        <ele>3189</ele>
        <time>2018-08-20T13:58:56.000Z</time>
      </trkpt>
      <trkpt lat="31.06474" lon="-7.93721">
        <ele>3188</ele>
        <time>2018-08-20T13:59:25.000Z</time>
      </trkpt>
      <trkpt lat="31.06475" lon="-7.93725">
        <ele>3185.02</ele>
        <time>2018-08-20T13:59:35.000Z</time>
      </trkpt>
      <trkpt lat="31.06479" lon="-7.93727">
        <ele>3186.75</ele>
        <time>2018-08-20T14:02:11.000Z</time>
      </trkpt>
      <trkpt lat="31.06482" lon="-7.93725">
        <ele>3188.63</ele>
        <time>2018-08-20T14:02:21.000Z</time>
      </trkpt>
      <trkpt lat="31.06483" lon="-7.93723">
        <ele>3190.06</ele>
        <time>2018-08-20T14:02:31.000Z</time>
      </trkpt>
      <trkpt lat="31.0648" lon="-7.93727">
        <ele>3187.02</ele>
        <time>2018-08-20T14:02:41.000Z</time>
      </trkpt>
      <trkpt lat="31.06482" lon="-7.93725">
        <ele>3186.02</ele>
        <time>2018-08-20T14:02:51.000Z</time>
      </trkpt>
      <trkpt lat="31.06485" lon="-7.93723">
        <ele>3185.26</ele>
        <time>2018-08-20T14:03:01.000Z</time>
      </trkpt>
      <trkpt lat="31.06489" lon="-7.93719">
        <ele>3183</ele>
        <time>2018-08-20T14:03:11.000Z</time>
      </trkpt>
      <trkpt lat="31.06494" lon="-7.93711">
        <ele>3183.48</ele>
        <time>2018-08-20T14:03:21.000Z</time>
      </trkpt>
      <trkpt lat="31.06497" lon="-7.93714">
        <ele>3179.08</ele>
        <time>2018-08-20T14:03:31.000Z</time>
      </trkpt>
      <trkpt lat="31.06499" lon="-7.93718">
        <ele>3179</ele>
        <time>2018-08-20T14:03:41.000Z</time>
      </trkpt>
      <trkpt lat="31.065" lon="-7.93722">
        <ele>3178.75</ele>
        <time>2018-08-20T14:03:51.000Z</time>
      </trkpt>
      <trkpt lat="31.06502" lon="-7.93729">
        <ele>3179.69</ele>
        <time>2018-08-20T14:04:01.000Z</time>
      </trkpt>
      <trkpt lat="31.06507" lon="-7.93732">
        <ele>3176.5</ele>
        <time>2018-08-20T14:04:11.000Z</time>
      </trkpt>
      <trkpt lat="31.06516" lon="-7.93725">
        <ele>3180.25</ele>
        <time>2018-08-20T14:04:21.000Z</time>
      </trkpt>
      <trkpt lat="31.06524" lon="-7.93717">
        <ele>3181.8</ele>
        <time>2018-08-20T14:04:31.000Z</time>
      </trkpt>
      <trkpt lat="31.06525" lon="-7.93715">
        <ele>3180.06</ele>
        <time>2018-08-20T14:04:41.000Z</time>
      </trkpt>
      <trkpt lat="31.06528" lon="-7.93712">
        <ele>3179.19</ele>
        <time>2018-08-20T14:04:51.000Z</time>
      </trkpt>
      <trkpt lat="31.06529" lon="-7.93704">
        <ele>3174.01</ele>
        <time>2018-08-20T14:05:01.000Z</time>
      </trkpt>
      <trkpt lat="31.06534" lon="-7.93698">
        <ele>3173.14</ele>
        <time>2018-08-20T14:05:11.000Z</time>
      </trkpt>
      <trkpt lat="31.06537" lon="-7.93692">
        <ele>3177.3</ele>
        <time>2018-08-20T14:05:21.000Z</time>
      </trkpt>
      <trkpt lat="31.06542" lon="-7.93688">
        <ele>3173.23</ele>
        <time>2018-08-20T14:05:31.000Z</time>
      </trkpt>
      <trkpt lat="31.06549" lon="-7.93687">
        <ele>3169.08</ele>
        <time>2018-08-20T14:05:41.000Z</time>
      </trkpt>
      <trkpt lat="31.06558" lon="-7.93686">
        <ele>3167</ele>
        <time>2018-08-20T14:05:51.000Z</time>
      </trkpt>
      <trkpt lat="31.0657" lon="-7.93681">
        <ele>3167</ele>
        <time>2018-08-20T14:06:01.000Z</time>
      </trkpt>
      <trkpt lat="31.06577" lon="-7.93675">
        <ele>3166.32</ele>
        <time>2018-08-20T14:06:11.000Z</time>
      </trkpt>
      <trkpt lat="31.06585" lon="-7.93674">
        <ele>3163.51</ele>
        <time>2018-08-20T14:06:21.000Z</time>
      </trkpt>
      <trkpt lat="31.06596" lon="-7.93663">
        <ele>3163.65</ele>
        <time>2018-08-20T14:06:31.000Z</time>
      </trkpt>
      <trkpt lat="31.06608" lon="-7.93663">
        <ele>3162.55</ele>
        <time>2018-08-20T14:06:41.000Z</time>
      </trkpt>
      <trkpt lat="31.0662" lon="-7.93658">
        <ele>3158.02</ele>
        <time>2018-08-20T14:06:51.000Z</time>
      </trkpt>
      <trkpt lat="31.06635" lon="-7.9365">
        <ele>3165.08</ele>
        <time>2018-08-20T14:07:01.000Z</time>
      </trkpt>
      <trkpt lat="31.06649" lon="-7.93647">
        <ele>3165.75</ele>
        <time>2018-08-20T14:07:11.000Z</time>
      </trkpt>
      <trkpt lat="31.06659" lon="-7.93642">
        <ele>3158.99</ele>
        <time>2018-08-20T14:07:21.000Z</time>
      </trkpt>
      <trkpt lat="31.06667" lon="-7.93631">
        <ele>3155.62</ele>
        <time>2018-08-20T14:07:31.000Z</time>
      </trkpt>
      <trkpt lat="31.06682" lon="-7.93631">
        <ele>3155.83</ele>
        <time>2018-08-20T14:07:41.000Z</time>
      </trkpt>
      <trkpt lat="31.0669" lon="-7.93632">
        <ele>3155.81</ele>
        <time>2018-08-20T14:07:51.000Z</time>
      </trkpt>
      <trkpt lat="31.06699" lon="-7.93626">
        <ele>3161.74</ele>
        <time>2018-08-20T14:08:01.000Z</time>
      </trkpt>
      <trkpt lat="31.06709" lon="-7.93627">
        <ele>3158.3</ele>
        <time>2018-08-20T14:08:11.000Z</time>
      </trkpt>
      <trkpt lat="31.06718" lon="-7.93622">
        <ele>3161.86</ele>
        <time>2018-08-20T14:08:21.000Z</time>
      </trkpt>
      <trkpt lat="31.06723" lon="-7.93619">
        <ele>3157.8</ele>
        <time>2018-08-20T14:08:31.000Z</time>
      </trkpt>
      <trkpt lat="31.06737" lon="-7.93613">
        <ele>3158.03</ele>
        <time>2018-08-20T14:08:41.000Z</time>
      </trkpt>
      <trkpt lat="31.06751" lon="-7.93614">
        <ele>3155.6</ele>
        <time>2018-08-20T14:08:51.000Z</time>
      </trkpt>
      <trkpt lat="31.06764" lon="-7.93609">
        <ele>3146.88</ele>
        <time>2018-08-20T14:09:01.000Z</time>
      </trkpt>
      <trkpt lat="31.06771" lon="-7.93603">
        <ele>3148</ele>
        <time>2018-08-20T14:09:11.000Z</time>
      </trkpt>
      <trkpt lat="31.06784" lon="-7.93596">
        <ele>3150.88</ele>
        <time>2018-08-20T14:09:21.000Z</time>
      </trkpt>
      <trkpt lat="31.06792" lon="-7.93591">
        <ele>3147.77</ele>
        <time>2018-08-20T14:09:31.000Z</time>
      </trkpt>
      <trkpt lat="31.06804" lon="-7.93593">
        <ele>3146</ele>
        <time>2018-08-20T14:09:41.000Z</time>
      </trkpt>
      <trkpt lat="31.06812" lon="-7.93594">
        <ele>3141.31</ele>
        <time>2018-08-20T14:09:51.000Z</time>
      </trkpt>
      <trkpt lat="31.06817" lon="-7.936">
        <ele>3136.31</ele>
        <time>2018-08-20T14:10:01.000Z</time>
      </trkpt>
      <trkpt lat="31.06827" lon="-7.93603">
        <ele>3131.68</ele>
        <time>2018-08-20T14:10:11.000Z</time>
      </trkpt>
      <trkpt lat="31.06838" lon="-7.93605">
        <ele>3136.75</ele>
        <time>2018-08-20T14:10:21.000Z</time>
      </trkpt>
      <trkpt lat="31.06847" lon="-7.93604">
        <ele>3135.03</ele>
        <time>2018-08-20T14:10:31.000Z</time>
      </trkpt>
      <trkpt lat="31.06853" lon="-7.93601">
        <ele>3134.82</ele>
        <time>2018-08-20T14:10:41.000Z</time>
      </trkpt>
      <trkpt lat="31.06863" lon="-7.93607">
        <ele>3126.87</ele>
        <time>2018-08-20T14:10:51.000Z</time>
      </trkpt>
      <trkpt lat="31.06875" lon="-7.93608">
        <ele>3129.98</ele>
        <time>2018-08-20T14:11:01.000Z</time>
      </trkpt>
      <trkpt lat="31.06881" lon="-7.93605">
        <ele>3122.36</ele>
        <time>2018-08-20T14:11:11.000Z</time>
      </trkpt>
      <trkpt lat="31.06894" lon="-7.93599">
        <ele>3120.06</ele>
        <time>2018-08-20T14:11:21.000Z</time>
      </trkpt>
      <trkpt lat="31.06902" lon="-7.9359">
        <ele>3121.97</ele>
        <time>2018-08-20T14:11:31.000Z</time>
      </trkpt>
      <trkpt lat="31.06913" lon="-7.93582">
        <ele>3122.4</ele>
        <time>2018-08-20T14:11:41.000Z</time>
      </trkpt>
      <trkpt lat="31.06917" lon="-7.93575">
        <ele>3119.01</ele>
        <time>2018-08-20T14:11:51.000Z</time>
      </trkpt>
      <trkpt lat="31.06931" lon="-7.93573">
        <ele>3116.46</ele>
        <time>2018-08-20T14:12:01.000Z</time>
      </trkpt>
      <trkpt lat="31.06939" lon="-7.93576">
        <ele>3115.72</ele>
        <time>2018-08-20T14:12:11.000Z</time>
      </trkpt>
      <trkpt lat="31.06945" lon="-7.93562">
        <ele>3120.06</ele>
        <time>2018-08-20T14:12:21.000Z</time>
      </trkpt>
      <trkpt lat="31.06959" lon="-7.93558">
        <ele>3120.52</ele>
        <time>2018-08-20T14:12:31.000Z</time>
      </trkpt>
      <trkpt lat="31.06967" lon="-7.93546">
        <ele>3116.26</ele>
        <time>2018-08-20T14:12:41.000Z</time>
      </trkpt>
      <trkpt lat="31.0697" lon="-7.93536">
        <ele>3115.03</ele>
        <time>2018-08-20T14:12:51.000Z</time>
      </trkpt>
      <trkpt lat="31.06979" lon="-7.93528">
        <ele>3114.21</ele>
        <time>2018-08-20T14:13:01.000Z</time>
      </trkpt>
      <trkpt lat="31.06991" lon="-7.93523">
        <ele>3111</ele>
        <time>2018-08-20T14:13:11.000Z</time>
      </trkpt>
      <trkpt lat="31.07" lon="-7.93518">
        <ele>3102.32</ele>
        <time>2018-08-20T14:13:21.000Z</time>
      </trkpt>
      <trkpt lat="31.07006" lon="-7.93516">
        <ele>3098.75</ele>
        <time>2018-08-20T14:13:31.000Z</time>
      </trkpt>
      <trkpt lat="31.07024" lon="-7.93521">
        <ele>3102.24</ele>
        <time>2018-08-20T14:13:41.000Z</time>
      </trkpt>
      <trkpt lat="31.07042" lon="-7.93519">
        <ele>3108</ele>
        <time>2018-08-20T14:13:51.000Z</time>
      </trkpt>
      <trkpt lat="31.07046" lon="-7.93519">
        <ele>3106.79</ele>
        <time>2018-08-20T14:14:01.000Z</time>
      </trkpt>
      <trkpt lat="31.07059" lon="-7.93515">
        <ele>3100.5</ele>
        <time>2018-08-20T14:14:11.000Z</time>
      </trkpt>
      <trkpt lat="31.07075" lon="-7.93516">
        <ele>3095.15</ele>
        <time>2018-08-20T14:14:21.000Z</time>
      </trkpt>
      <trkpt lat="31.07085" lon="-7.93513">
        <ele>3094.8</ele>
        <time>2018-08-20T14:14:31.000Z</time>
      </trkpt>
      <trkpt lat="31.07093" lon="-7.93515">
        <ele>3092.45</ele>
        <time>2018-08-20T14:14:41.000Z</time>
      </trkpt>
      <trkpt lat="31.07106" lon="-7.93514">
        <ele>3093</ele>
        <time>2018-08-20T14:14:51.000Z</time>
      </trkpt>
      <trkpt lat="31.07118" lon="-7.93509">
        <ele>3096.28</ele>
        <time>2018-08-20T14:15:01.000Z</time>
      </trkpt>
      <trkpt lat="31.07126" lon="-7.93508">
        <ele>3093.09</ele>
        <time>2018-08-20T14:15:11.000Z</time>
      </trkpt>
      <trkpt lat="31.07138" lon="-7.93505">
        <ele>3089.83</ele>
        <time>2018-08-20T14:15:21.000Z</time>
      </trkpt>
      <trkpt lat="31.07153" lon="-7.93498">
        <ele>3083.26</ele>
        <time>2018-08-20T14:15:31.000Z</time>
      </trkpt>
      <trkpt lat="31.07165" lon="-7.93488">
        <ele>3083.75</ele>
        <time>2018-08-20T14:15:41.000Z</time>
      </trkpt>
      <trkpt lat="31.07178" lon="-7.93485">
        <ele>3088.17</ele>
        <time>2018-08-20T14:15:51.000Z</time>
      </trkpt>
      <trkpt lat="31.07189" lon="-7.93482">
        <ele>3086.77</ele>
        <time>2018-08-20T14:16:01.000Z</time>
      </trkpt>
      <trkpt lat="31.07196" lon="-7.93482">
        <ele>3083.25</ele>
        <time>2018-08-20T14:16:11.000Z</time>
      </trkpt>
      <trkpt lat="31.07204" lon="-7.93475">
        <ele>3084</ele>
        <time>2018-08-20T14:16:21.000Z</time>
      </trkpt>
      <trkpt lat="31.07218" lon="-7.93467">
        <ele>3084.23</ele>
        <time>2018-08-20T14:16:31.000Z</time>
      </trkpt>
      <trkpt lat="31.07229" lon="-7.93461">
        <ele>3082.74</ele>
        <time>2018-08-20T14:16:41.000Z</time>
      </trkpt>
      <trkpt lat="31.07241" lon="-7.93456">
        <ele>3083.88</ele>
        <time>2018-08-20T14:16:51.000Z</time>
      </trkpt>
      <trkpt lat="31.07248" lon="-7.93449">
        <ele>3076.01</ele>
        <time>2018-08-20T14:17:01.000Z</time>
      </trkpt>
      <trkpt lat="31.07256" lon="-7.93442">
        <ele>3077.23</ele>
        <time>2018-08-20T14:17:11.000Z</time>
      </trkpt>
      <trkpt lat="31.07263" lon="-7.93437">
        <ele>3079.41</ele>
        <time>2018-08-20T14:17:21.000Z</time>
      </trkpt>
      <trkpt lat="31.07273" lon="-7.93429">
        <ele>3084.23</ele>
        <time>2018-08-20T14:17:31.000Z</time>
      </trkpt>
      <trkpt lat="31.07275" lon="-7.93424">
        <ele>3075.68</ele>
        <time>2018-08-20T14:17:41.000Z</time>
      </trkpt>
      <trkpt lat="31.0728" lon="-7.93415">
        <ele>3076.51</ele>
        <time>2018-08-20T14:17:51.000Z</time>
      </trkpt>
      <trkpt lat="31.07286" lon="-7.93402">
        <ele>3074.75</ele>
        <time>2018-08-20T14:18:01.000Z</time>
      </trkpt>
      <trkpt lat="31.07292" lon="-7.93391">
        <ele>3075.72</ele>
        <time>2018-08-20T14:18:11.000Z</time>
      </trkpt>
      <trkpt lat="31.07299" lon="-7.93378">
        <ele>3074.99</ele>
        <time>2018-08-20T14:18:21.000Z</time>
      </trkpt>
      <trkpt lat="31.07308" lon="-7.93368">
        <ele>3075.12</ele>
        <time>2018-08-20T14:18:31.000Z</time>
      </trkpt>
      <trkpt lat="31.07316" lon="-7.93361">
        <ele>3076.25</ele>
        <time>2018-08-20T14:18:41.000Z</time>
      </trkpt>
      <trkpt lat="31.07328" lon="-7.93356">
        <ele>3074.76</ele>
        <time>2018-08-20T14:18:51.000Z</time>
      </trkpt>
      <trkpt lat="31.07339" lon="-7.93351">
        <ele>3067.77</ele>
        <time>2018-08-20T14:19:01.000Z</time>
      </trkpt>
      <trkpt lat="31.07347" lon="-7.93346">
        <ele>3068.7</ele>
        <time>2018-08-20T14:19:11.000Z</time>
      </trkpt>
      <trkpt lat="31.07354" lon="-7.93339">
        <ele>3070.01</ele>
        <time>2018-08-20T14:19:21.000Z</time>
      </trkpt>
      <trkpt lat="31.0736" lon="-7.93333">
        <ele>3065.83</ele>
        <time>2018-08-20T14:19:31.000Z</time>
      </trkpt>
      <trkpt lat="31.07369" lon="-7.93327">
        <ele>3067.24</ele>
        <time>2018-08-20T14:19:41.000Z</time>
      </trkpt>
      <trkpt lat="31.07379" lon="-7.93323">
        <ele>3062.02</ele>
        <time>2018-08-20T14:19:51.000Z</time>
      </trkpt>
      <trkpt lat="31.07386" lon="-7.93316">
        <ele>3065.75</ele>
        <time>2018-08-20T14:20:01.000Z</time>
      </trkpt>
      <trkpt lat="31.07396" lon="-7.9331">
        <ele>3064.03</ele>
        <time>2018-08-20T14:20:11.000Z</time>
      </trkpt>
      <trkpt lat="31.07404" lon="-7.93307">
        <ele>3062.75</ele>
        <time>2018-08-20T14:20:21.000Z</time>
      </trkpt>
      <trkpt lat="31.07413" lon="-7.93298">
        <ele>3057.36</ele>
        <time>2018-08-20T14:20:31.000Z</time>
      </trkpt>
      <trkpt lat="31.07427" lon="-7.93298">
        <ele>3054.21</ele>
        <time>2018-08-20T14:20:41.000Z</time>
      </trkpt>
      <trkpt lat="31.07433" lon="-7.93294">
        <ele>3056.25</ele>
        <time>2018-08-20T14:20:51.000Z</time>
      </trkpt>
      <trkpt lat="31.0744" lon="-7.93291">
        <ele>3050.05</ele>
        <time>2018-08-20T14:21:01.000Z</time>
      </trkpt>
      <trkpt lat="31.07448" lon="-7.93287">
        <ele>3047.02</ele>
        <time>2018-08-20T14:21:11.000Z</time>
      </trkpt>
      <trkpt lat="31.07452" lon="-7.93283">
        <ele>3043.01</ele>
        <time>2018-08-20T14:21:21.000Z</time>
      </trkpt>
      <trkpt lat="31.07464" lon="-7.93277">
        <ele>3037.15</ele>
        <time>2018-08-20T14:21:31.000Z</time>
      </trkpt>
      <trkpt lat="31.07474" lon="-7.93266">
        <ele>3034.19</ele>
        <time>2018-08-20T14:21:41.000Z</time>
      </trkpt>
      <trkpt lat="31.07482" lon="-7.93261">
        <ele>3036.98</ele>
        <time>2018-08-20T14:21:51.000Z</time>
      </trkpt>
      <trkpt lat="31.07489" lon="-7.93252">
        <ele>3039.23</ele>
        <time>2018-08-20T14:22:01.000Z</time>
      </trkpt>
      <trkpt lat="31.07499" lon="-7.93246">
        <ele>3040.55</ele>
        <time>2018-08-20T14:22:11.000Z</time>
      </trkpt>
      <trkpt lat="31.07505" lon="-7.93238">
        <ele>3036.82</ele>
        <time>2018-08-20T14:22:21.000Z</time>
      </trkpt>
      <trkpt lat="31.07513" lon="-7.93227">
        <ele>3033.98</ele>
        <time>2018-08-20T14:22:31.000Z</time>
      </trkpt>
      <trkpt lat="31.07516" lon="-7.93222">
        <ele>3032</ele>
        <time>2018-08-20T14:22:41.000Z</time>
      </trkpt>
      <trkpt lat="31.07524" lon="-7.93216">
        <ele>3031.5</ele>
        <time>2018-08-20T14:22:51.000Z</time>
      </trkpt>
      <trkpt lat="31.07535" lon="-7.93204">
        <ele>3032.95</ele>
        <time>2018-08-20T14:23:01.000Z</time>
      </trkpt>
      <trkpt lat="31.07537" lon="-7.93201">
        <ele>3029.08</ele>
        <time>2018-08-20T14:23:11.000Z</time>
      </trkpt>
      <trkpt lat="31.07547" lon="-7.93198">
        <ele>3032.74</ele>
        <time>2018-08-20T14:23:21.000Z</time>
      </trkpt>
      <trkpt lat="31.07555" lon="-7.93192">
        <ele>3026.25</ele>
        <time>2018-08-20T14:23:31.000Z</time>
      </trkpt>
      <trkpt lat="31.07565" lon="-7.93186">
        <ele>3025.44</ele>
        <time>2018-08-20T14:23:41.000Z</time>
      </trkpt>
      <trkpt lat="31.07575" lon="-7.93182">
        <ele>3019.07</ele>
        <time>2018-08-20T14:23:51.000Z</time>
      </trkpt>
      <trkpt lat="31.07584" lon="-7.93174">
        <ele>3016.88</ele>
        <time>2018-08-20T14:24:01.000Z</time>
      </trkpt>
      <trkpt lat="31.07597" lon="-7.93165">
        <ele>3020.62</ele>
        <time>2018-08-20T14:24:11.000Z</time>
      </trkpt>
      <trkpt lat="31.07604" lon="-7.93157">
        <ele>3021.72</ele>
        <time>2018-08-20T14:24:21.000Z</time>
      </trkpt>
      <trkpt lat="31.07613" lon="-7.93149">
        <ele>3019.26</ele>
        <time>2018-08-20T14:24:31.000Z</time>
      </trkpt>
      <trkpt lat="31.07621" lon="-7.93145">
        <ele>3017.05</ele>
        <time>2018-08-20T14:24:41.000Z</time>
      </trkpt>
      <trkpt lat="31.07627" lon="-7.93142">
        <ele>3013.08</ele>
        <time>2018-08-20T14:24:51.000Z</time>
      </trkpt>
      <trkpt lat="31.07637" lon="-7.93137">
        <ele>3011.75</ele>
        <time>2018-08-20T14:25:01.000Z</time>
      </trkpt>
      <trkpt lat="31.07649" lon="-7.93135">
        <ele>3011.64</ele>
        <time>2018-08-20T14:25:11.000Z</time>
      </trkpt>
      <trkpt lat="31.07655" lon="-7.93131">
        <ele>3016.94</ele>
        <time>2018-08-20T14:25:21.000Z</time>
      </trkpt>
      <trkpt lat="31.07661" lon="-7.93122">
        <ele>3015.14</ele>
        <time>2018-08-20T14:25:31.000Z</time>
      </trkpt>
      <trkpt lat="31.07669" lon="-7.93117">
        <ele>3013.17</ele>
        <time>2018-08-20T14:25:41.000Z</time>
      </trkpt>
      <trkpt lat="31.07676" lon="-7.93109">
        <ele>3007.27</ele>
        <time>2018-08-20T14:25:51.000Z</time>
      </trkpt>
      <trkpt lat="31.07688" lon="-7.93108">
        <ele>2999.08</ele>
        <time>2018-08-20T14:26:01.000Z</time>
      </trkpt>
      <trkpt lat="31.07697" lon="-7.93104">
        <ele>2997.13</ele>
        <time>2018-08-20T14:26:11.000Z</time>
      </trkpt>
      <trkpt lat="31.0771" lon="-7.93101">
        <ele>2995.74</ele>
        <time>2018-08-20T14:26:21.000Z</time>
      </trkpt>
      <trkpt lat="31.0772" lon="-7.93096">
        <ele>2997.98</ele>
        <time>2018-08-20T14:26:31.000Z</time>
      </trkpt>
      <trkpt lat="31.07726" lon="-7.93092">
        <ele>2993.08</ele>
        <time>2018-08-20T14:26:41.000Z</time>
      </trkpt>
      <trkpt lat="31.07735" lon="-7.93083">
        <ele>2995.98</ele>
        <time>2018-08-20T14:26:51.000Z</time>
      </trkpt>
      <trkpt lat="31.07741" lon="-7.93077">
        <ele>2995.28</ele>
        <time>2018-08-20T14:27:01.000Z</time>
      </trkpt>
      <trkpt lat="31.07752" lon="-7.93073">
        <ele>2992.98</ele>
        <time>2018-08-20T14:27:11.000Z</time>
      </trkpt>
      <trkpt lat="31.07761" lon="-7.93071">
        <ele>2990.31</ele>
        <time>2018-08-20T14:27:21.000Z</time>
      </trkpt>
      <trkpt lat="31.07776" lon="-7.93071">
        <ele>2987.75</ele>
        <time>2018-08-20T14:27:31.000Z</time>
      </trkpt>
      <trkpt lat="31.07785" lon="-7.93066">
        <ele>2987.26</ele>
        <time>2018-08-20T14:27:41.000Z</time>
      </trkpt>
      <trkpt lat="31.07795" lon="-7.9306">
        <ele>2986.19</ele>
        <time>2018-08-20T14:27:51.000Z</time>
      </trkpt>
      <trkpt lat="31.07802" lon="-7.93048">
        <ele>2992.14</ele>
        <time>2018-08-20T14:28:01.000Z</time>
      </trkpt>
      <trkpt lat="31.07808" lon="-7.9304">
        <ele>2985.53</ele>
        <time>2018-08-20T14:28:11.000Z</time>
      </trkpt>
      <trkpt lat="31.07818" lon="-7.93034">
        <ele>2981.72</ele>
        <time>2018-08-20T14:28:21.000Z</time>
      </trkpt>
      <trkpt lat="31.07829" lon="-7.93028">
        <ele>2979.06</ele>
        <time>2018-08-20T14:28:31.000Z</time>
      </trkpt>
      <trkpt lat="31.07841" lon="-7.93025">
        <ele>2986.68</ele>
        <time>2018-08-20T14:28:41.000Z</time>
      </trkpt>
      <trkpt lat="31.07852" lon="-7.93024">
        <ele>2988.56</ele>
        <time>2018-08-20T14:28:51.000Z</time>
      </trkpt>
      <trkpt lat="31.07858" lon="-7.93022">
        <ele>2987.31</ele>
        <time>2018-08-20T14:29:01.000Z</time>
      </trkpt>
      <trkpt lat="31.07865" lon="-7.93021">
        <ele>2993.31</ele>
        <time>2018-08-20T14:29:11.000Z</time>
      </trkpt>
      <trkpt lat="31.07867" lon="-7.93019">
        <ele>2996</ele>
        <time>2018-08-20T14:29:21.000Z</time>
      </trkpt>
      <trkpt lat="31.07867" lon="-7.93021">
        <ele>2993.33</ele>
        <time>2018-08-20T14:29:40.000Z</time>
      </trkpt>
      <trkpt lat="31.07867" lon="-7.93023">
        <ele>2995.02</ele>
        <time>2018-08-20T14:29:50.000Z</time>
      </trkpt>
      <trkpt lat="31.0787" lon="-7.93023">
        <ele>2999</ele>
        <time>2018-08-20T14:30:00.000Z</time>
      </trkpt>
      <trkpt lat="31.0787" lon="-7.93022">
        <ele>3000</ele>
        <time>2018-08-20T14:30:32.000Z</time>
      </trkpt>
      <trkpt lat="31.07871" lon="-7.9302">
        <ele>3000.81</ele>
        <time>2018-08-20T14:30:43.000Z</time>
      </trkpt>
      <trkpt lat="31.07871" lon="-7.93023">
        <ele>2999.02</ele>
        <time>2018-08-20T14:30:53.000Z</time>
      </trkpt>
      <trkpt lat="31.07871" lon="-7.93019">
        <ele>3000.81</ele>
        <time>2018-08-20T14:31:03.000Z</time>
      </trkpt>
    </trkseg>
  </trk>
</gpx>